<?xml version="1.0" encoding="UTF-8" standalone="no" ?>
<gpx xmlns="http://www.topografix.com/GPX/1/1" xmlns:xsi="http://www.w3.org/2001/XMLSchema-instance" xsi:schemaLocation="http://www.topografix.com/GPX/1/1 http://www.topografix.com/GPX/1/1/gpx.xsd" version="1.1" creator="VisuGPX - https://www.visugpx.com">
  <metadata>
    <name>Ultra Defi Solidaire 2022 - Jour 1</name>
    <desc><![CDATA[
[b]Le concept[/b]

Ce défi sportif vous conviera à une traversée qui reliera Montluçon au sommet du Puy de Dôme, sur les routes et chemins de l?Allier et du Puy-de-Dôme, à vélo ou en course à pied avec 2 joëlettes pour accompagner des personnes en situation de handicap.
Effectuée sur deux jours, la traversée permettra à chacun de prendre part à une ou plusieurs étapes de son choix, en vélo, en course à pied ou pourquoi pas en alliant les deux disciplines. Ainsi, chaque engagé pourra décider des étapes auxquelles il souhaite participer (étapes à sélectionner sur le formulaire d'incription), le tout à un rythme adapté à tout type de coureur et de rouleur. 

 

[b]Pourquoi[/b]

Pour financer un plateau sportif adapté, pour des enfants en situation de handicap.

Cette traversée a également pour but de percevoir le handicap sous une autre facette, puisque nous accompagnerons des personnes en situation de handicap tout au long de cette traversée.

Nous cherchons avant tout à véhiculer les valeurs du sport comme l?entraide, la convivialité et le partage.

 

[b]Les parrains[/b]

-Florian VACHON (cycliste professionnel de l?équipe Arkéa-Samsic)

-Yannick BOURSEAUX (Champion du monde  de paratriathlon)

-Yoan MEUDEC (Trailleur niveau national)]]></desc>
  </metadata>
  <trk>
    <name><![CDATA[UDS 2022 J1(Arpheuille-Le Quartier) et retour par La Crouzille et Ars-les-Favets]]></name>
    <trkseg>
      <trkpt lat="46.22465" lon="2.67817">
        <ele>525.48227189402</ele>
        <time>2022-03-28T03:42:35.000Z</time>
      </trkpt>
      <trkpt lat="46.22461" lon="2.67814">
        <ele>525.35482202456</ele>
        <time>2022-03-28T03:42:35.001Z</time>
      </trkpt>
      <trkpt lat="46.22459" lon="2.67817">
        <ele>525.08477817383</ele>
        <time>2022-03-28T03:42:35.002Z</time>
      </trkpt>
      <trkpt lat="46.2245" lon="2.6783">
        <ele>524.76719749395</ele>
        <time>2022-03-28T03:42:35.006Z</time>
      </trkpt>
      <trkpt lat="46.22437" lon="2.67842">
        <ele>524.4791249081</ele>
        <time>2022-03-28T03:42:35.013Z</time>
      </trkpt>
      <trkpt lat="46.22431" lon="2.67846">
        <ele>524.21389539365</ele>
        <time>2022-03-28T03:42:35.021Z</time>
      </trkpt>
      <trkpt lat="46.22417" lon="2.67851">
        <ele>523.95155251264</ele>
        <time>2022-03-28T03:42:35.032Z</time>
      </trkpt>
      <trkpt lat="46.22378" lon="2.67857">
        <ele>523.69489156807</ele>
        <time>2022-03-28T03:42:35.051Z</time>
      </trkpt>
      <trkpt lat="46.22315" lon="2.67867">
        <ele>523.504294915</ele>
        <time>2022-03-28T03:42:35.083Z</time>
      </trkpt>
      <trkpt lat="46.22252" lon="2.67885">
        <ele>523.25000391487</ele>
        <time>2022-03-28T03:42:35.128Z</time>
      </trkpt>
      <trkpt lat="46.22211" lon="2.67901">
        <ele>523.35041824376</ele>
        <time>2022-03-28T03:42:35.181Z</time>
      </trkpt>
      <trkpt lat="46.22163" lon="2.67923">
        <ele>524.01617292497</ele>
        <time>2022-03-28T03:42:35.244Z</time>
      </trkpt>
      <trkpt lat="46.22106" lon="2.67952">
        <ele>525.06052827724</ele>
        <time>2022-03-28T03:42:35.319Z</time>
      </trkpt>
      <trkpt lat="46.22076" lon="2.6797">
        <ele>526.15961359899</ele>
        <time>2022-03-28T03:42:35.401Z</time>
      </trkpt>
      <trkpt lat="46.22068" lon="2.67972">
        <ele>527.15363426812</ele>
        <time>2022-03-28T03:42:35.485Z</time>
      </trkpt>
      <trkpt lat="46.22054" lon="2.67985">
        <ele>528.01634458903</ele>
        <time>2022-03-28T03:42:35.572Z</time>
      </trkpt>
      <trkpt lat="46.2204" lon="2.68001">
        <ele>528.64315889496</ele>
        <time>2022-03-28T03:42:35.662Z</time>
      </trkpt>
      <trkpt lat="46.22009" lon="2.68045">
        <ele>529.16502282911</ele>
        <time>2022-03-28T03:42:35.761Z</time>
      </trkpt>
      <trkpt lat="46.21988" lon="2.68075">
        <ele>529.38521973798</ele>
        <time>2022-03-28T03:42:35.866Z</time>
      </trkpt>
      <trkpt lat="46.21987" lon="2.68076">
        <ele>529.1035163139</ele>
        <time>2022-03-28T03:42:35.971Z</time>
      </trkpt>
      <trkpt lat="46.21986" lon="2.68075">
        <ele>528.64827680128</ele>
        <time>2022-03-28T03:42:36.077Z</time>
      </trkpt>
      <trkpt lat="46.21954" lon="2.68119">
        <ele>527.79861823617</ele>
        <time>2022-03-28T03:42:36.192Z</time>
      </trkpt>
      <trkpt lat="46.21954" lon="2.68119">
        <ele>526.93762214746</ele>
        <time>2022-03-28T03:42:36.307Z</time>
      </trkpt>
      <trkpt lat="46.21865" lon="2.68239">
        <ele>525.75107862022</ele>
        <time>2022-03-28T03:42:36.446Z</time>
      </trkpt>
      <trkpt lat="46.21838" lon="2.68271">
        <ele>524.81478449683</ele>
        <time>2022-03-28T03:42:36.592Z</time>
      </trkpt>
      <trkpt lat="46.21802" lon="2.68305">
        <ele>523.91023167189</ele>
        <time>2022-03-28T03:42:36.746Z</time>
      </trkpt>
      <trkpt lat="46.2178" lon="2.68321">
        <ele>523.07617677891</ele>
        <time>2022-03-28T03:42:36.905Z</time>
      </trkpt>
      <trkpt lat="46.21737" lon="2.68344">
        <ele>522.33199374948</ele>
        <time>2022-03-28T03:42:37.074Z</time>
      </trkpt>
      <trkpt lat="46.21737" lon="2.68344">
        <ele>521.63997640481</ele>
        <time>2022-03-28T03:42:37.243Z</time>
      </trkpt>
      <trkpt lat="46.21521" lon="2.6845">
        <ele>520.53773651662</ele>
        <time>2022-03-28T03:42:37.457Z</time>
      </trkpt>
      <trkpt lat="46.21394" lon="2.68575">
        <ele>519.85208822199</ele>
        <time>2022-03-28T03:42:37.702Z</time>
      </trkpt>
      <trkpt lat="46.21392" lon="2.68577">
        <ele>518.81308919529</ele>
        <time>2022-03-28T03:42:37.947Z</time>
      </trkpt>
      <trkpt lat="46.21392" lon="2.68577">
        <ele>518.48560796965</ele>
        <time>2022-03-28T03:42:38.192Z</time>
      </trkpt>
      <trkpt lat="46.21381" lon="2.68588">
        <ele>518.21913961042</ele>
        <time>2022-03-28T03:42:38.440Z</time>
      </trkpt>
      <trkpt lat="46.21378" lon="2.6859">
        <ele>518.06918557295</ele>
        <time>2022-03-28T03:42:38.689Z</time>
      </trkpt>
      <trkpt lat="46.21376" lon="2.68593">
        <ele>517.98633286304</ele>
        <time>2022-03-28T03:42:38.938Z</time>
      </trkpt>
      <trkpt lat="46.21381" lon="2.68588">
        <ele>518.21913961042</ele>
        <time>2022-03-28T03:42:39.188Z</time>
      </trkpt>
      <trkpt lat="46.21221" lon="2.68635">
        <ele>517.74760991615</ele>
        <time>2022-03-28T03:42:39.471Z</time>
      </trkpt>
      <trkpt lat="46.21133" lon="2.68633">
        <ele>517.51550892643</ele>
        <time>2022-03-28T03:42:39.772Z</time>
      </trkpt>
      <trkpt lat="46.21103" lon="2.68624">
        <ele>517.40554519463</ele>
        <time>2022-03-28T03:42:40.079Z</time>
      </trkpt>
      <trkpt lat="46.21086" lon="2.68611">
        <ele>517.21166584686</ele>
        <time>2022-03-28T03:42:40.390Z</time>
      </trkpt>
      <trkpt lat="46.21083" lon="2.68626">
        <ele>516.92698816031</ele>
        <time>2022-03-28T03:42:40.703Z</time>
      </trkpt>
      <trkpt lat="46.21083" lon="2.68638">
        <ele>516.45353220302</ele>
        <time>2022-03-28T03:42:41.018Z</time>
      </trkpt>
      <trkpt lat="46.20967" lon="2.68663">
        <ele>515.75343459296</ele>
        <time>2022-03-28T03:42:41.356Z</time>
      </trkpt>
      <trkpt lat="46.20895" lon="2.68662">
        <ele>514.81470062348</ele>
        <time>2022-03-28T03:42:41.709Z</time>
      </trkpt>
      <trkpt lat="46.20813" lon="2.68682">
        <ele>513.58037154521</ele>
        <time>2022-03-28T03:42:42.078Z</time>
      </trkpt>
      <trkpt lat="46.20736" lon="2.68695">
        <ele>512.00860758259</ele>
        <time>2022-03-28T03:42:42.463Z</time>
      </trkpt>
      <trkpt lat="46.20704" lon="2.68685">
        <ele>510.25300258224</ele>
        <time>2022-03-28T03:42:42.854Z</time>
      </trkpt>
      <trkpt lat="46.20605" lon="2.68725">
        <ele>507.97549220126</ele>
        <time>2022-03-28T03:42:43.266Z</time>
      </trkpt>
      <trkpt lat="46.20542" lon="2.68751">
        <ele>505.45016396866</ele>
        <time>2022-03-28T03:42:43.691Z</time>
      </trkpt>
      <trkpt lat="46.205" lon="2.68757">
        <ele>502.64218814367</ele>
        <time>2022-03-28T03:42:44.124Z</time>
      </trkpt>
      <trkpt lat="46.20464" lon="2.68818">
        <ele>499.64349455225</ele>
        <time>2022-03-28T03:42:44.568Z</time>
      </trkpt>
      <trkpt lat="46.20445" lon="2.68846">
        <ele>496.54057108113</ele>
        <time>2022-03-28T03:42:45.018Z</time>
      </trkpt>
      <trkpt lat="46.2039" lon="2.68993">
        <ele>492.9753137937</ele>
        <time>2022-03-28T03:42:45.491Z</time>
      </trkpt>
      <trkpt lat="46.20368" lon="2.69042">
        <ele>489.57121729656</ele>
        <time>2022-03-28T03:42:45.972Z</time>
      </trkpt>
      <trkpt lat="46.20344" lon="2.69086">
        <ele>486.2441071185</ele>
        <time>2022-03-28T03:42:46.461Z</time>
      </trkpt>
      <trkpt lat="46.20339" lon="2.6909">
        <ele>483.12536237029</ele>
        <time>2022-03-28T03:42:46.951Z</time>
      </trkpt>
      <trkpt lat="46.20326" lon="2.69098">
        <ele>480.13311747801</ele>
        <time>2022-03-28T03:42:47.444Z</time>
      </trkpt>
      <trkpt lat="46.20323" lon="2.691">
        <ele>477.34596464012</ele>
        <time>2022-03-28T03:42:47.937Z</time>
      </trkpt>
      <trkpt lat="46.20323" lon="2.691">
        <ele>474.78446458239</ele>
        <time>2022-03-28T03:42:48.430Z</time>
      </trkpt>
      <trkpt lat="46.20252" lon="2.69146">
        <ele>472.17555297793</ele>
        <time>2022-03-28T03:42:48.939Z</time>
      </trkpt>
      <trkpt lat="46.20136" lon="2.69279">
        <ele>469.75722036802</ele>
        <time>2022-03-28T03:42:49.478Z</time>
      </trkpt>
      <trkpt lat="46.2011" lon="2.69289">
        <ele>467.95592040049</ele>
        <time>2022-03-28T03:42:50.022Z</time>
      </trkpt>
      <trkpt lat="46.20071" lon="2.69318">
        <ele>466.46154247018</ele>
        <time>2022-03-28T03:42:50.575Z</time>
      </trkpt>
      <trkpt lat="46.20031" lon="2.69307">
        <ele>465.35113394631</ele>
        <time>2022-03-28T03:42:51.136Z</time>
      </trkpt>
      <trkpt lat="46.19989" lon="2.69283">
        <ele>464.64535841416</ele>
        <time>2022-03-28T03:42:51.706Z</time>
      </trkpt>
      <trkpt lat="46.19949" lon="2.69266">
        <ele>464.41959731966</ele>
        <time>2022-03-28T03:42:52.284Z</time>
      </trkpt>
      <trkpt lat="46.19842" lon="2.69242">
        <ele>464.22939614842</ele>
        <time>2022-03-28T03:42:52.884Z</time>
      </trkpt>
      <trkpt lat="46.19748" lon="2.69251">
        <ele>464.94547846615</ele>
        <time>2022-03-28T03:42:53.503Z</time>
      </trkpt>
      <trkpt lat="46.19692" lon="2.6925">
        <ele>465.83289180531</ele>
        <time>2022-03-28T03:42:54.133Z</time>
      </trkpt>
      <trkpt lat="46.19645" lon="2.69236">
        <ele>467.11400472001</ele>
        <time>2022-03-28T03:42:54.773Z</time>
      </trkpt>
      <trkpt lat="46.19603" lon="2.692">
        <ele>468.69509289774</ele>
        <time>2022-03-28T03:42:55.423Z</time>
      </trkpt>
      <trkpt lat="46.19563" lon="2.69134">
        <ele>470.31054744196</ele>
        <time>2022-03-28T03:42:56.085Z</time>
      </trkpt>
      <trkpt lat="46.19543" lon="2.69113">
        <ele>472.14138886421</ele>
        <time>2022-03-28T03:42:56.752Z</time>
      </trkpt>
      <trkpt lat="46.1954" lon="2.6911">
        <ele>474.0276159684</ele>
        <time>2022-03-28T03:42:57.419Z</time>
      </trkpt>
      <trkpt lat="46.1954" lon="2.6911">
        <ele>475.98351410031</ele>
        <time>2022-03-28T03:42:58.086Z</time>
      </trkpt>
      <trkpt lat="46.19525" lon="2.69094">
        <ele>477.97285089689</ele>
        <time>2022-03-28T03:42:58.757Z</time>
      </trkpt>
      <trkpt lat="46.19484" lon="2.69121">
        <ele>480.11976815465</ele>
        <time>2022-03-28T03:42:59.437Z</time>
      </trkpt>
      <trkpt lat="46.19474" lon="2.69139">
        <ele>482.09478198327</ele>
        <time>2022-03-28T03:43:00.120Z</time>
      </trkpt>
      <trkpt lat="46.1946" lon="2.69153">
        <ele>484.01500816426</ele>
        <time>2022-03-28T03:43:00.807Z</time>
      </trkpt>
      <trkpt lat="46.19397" lon="2.69203">
        <ele>486.08097589415</ele>
        <time>2022-03-28T03:43:01.508Z</time>
      </trkpt>
      <trkpt lat="46.19365" lon="2.69257">
        <ele>487.80177641514</ele>
        <time>2022-03-28T03:43:02.219Z</time>
      </trkpt>
      <trkpt lat="46.19344" lon="2.69279">
        <ele>489.25047162521</ele>
        <time>2022-03-28T03:43:02.935Z</time>
      </trkpt>
      <trkpt lat="46.19303" lon="2.69316">
        <ele>490.57584284485</ele>
        <time>2022-03-28T03:43:03.661Z</time>
      </trkpt>
      <trkpt lat="46.19278" lon="2.6933">
        <ele>491.64210286078</ele>
        <time>2022-03-28T03:43:04.392Z</time>
      </trkpt>
      <trkpt lat="46.19245" lon="2.69358">
        <ele>492.29002962687</ele>
        <time>2022-03-28T03:43:05.131Z</time>
      </trkpt>
      <trkpt lat="46.19218" lon="2.69389">
        <ele>492.60446147591</ele>
        <time>2022-03-28T03:43:05.877Z</time>
      </trkpt>
      <trkpt lat="46.19204" lon="2.69415">
        <ele>492.66417066832</ele>
        <time>2022-03-28T03:43:06.628Z</time>
      </trkpt>
      <trkpt lat="46.19193" lon="2.69492">
        <ele>492.40479410475</ele>
        <time>2022-03-28T03:43:07.389Z</time>
      </trkpt>
      <trkpt lat="46.192" lon="2.69596">
        <ele>491.9720875172</ele>
        <time>2022-03-28T03:43:08.165Z</time>
      </trkpt>
      <trkpt lat="46.19186" lon="2.69724">
        <ele>491.67984919966</ele>
        <time>2022-03-28T03:43:08.959Z</time>
      </trkpt>
      <trkpt lat="46.19185" lon="2.69725">
        <ele>491.58573376442</ele>
        <time>2022-03-28T03:43:09.753Z</time>
      </trkpt>
      <trkpt lat="46.19185" lon="2.69729">
        <ele>491.65216537118</ele>
        <time>2022-03-28T03:43:10.548Z</time>
      </trkpt>
      <trkpt lat="46.19185" lon="2.69729">
        <ele>491.95498205102</ele>
        <time>2022-03-28T03:43:11.343Z</time>
      </trkpt>
      <trkpt lat="46.19186" lon="2.69724">
        <ele>491.67984919966</ele>
        <time>2022-03-28T03:43:12.138Z</time>
      </trkpt>
      <trkpt lat="46.19174" lon="2.69722">
        <ele>493.41303615066</ele>
        <time>2022-03-28T03:43:12.936Z</time>
      </trkpt>
      <trkpt lat="46.19134" lon="2.69706">
        <ele>494.61588873352</ele>
        <time>2022-03-28T03:43:13.742Z</time>
      </trkpt>
      <trkpt lat="46.19116" lon="2.69686">
        <ele>496.12969204717</ele>
        <time>2022-03-28T03:43:14.553Z</time>
      </trkpt>
      <trkpt lat="46.18943" lon="2.69664">
        <ele>498.64547635567</ele>
        <time>2022-03-28T03:43:15.398Z</time>
      </trkpt>
      <trkpt lat="46.18919" lon="2.69665">
        <ele>500.7524577761</ele>
        <time>2022-03-28T03:43:16.248Z</time>
      </trkpt>
      <trkpt lat="46.1883" lon="2.69598">
        <ele>503.12677624729</ele>
        <time>2022-03-28T03:43:17.118Z</time>
      </trkpt>
      <trkpt lat="46.18797" lon="2.69553">
        <ele>505.17983833666</ele>
        <time>2022-03-28T03:43:17.997Z</time>
      </trkpt>
      <trkpt lat="46.18729" lon="2.69536">
        <ele>507.08833303107</ele>
        <time>2022-03-28T03:43:18.890Z</time>
      </trkpt>
      <trkpt lat="46.18538" lon="2.69541">
        <ele>508.8186251398</ele>
        <time>2022-03-28T03:43:19.821Z</time>
      </trkpt>
      <trkpt lat="46.18417" lon="2.69564">
        <ele>511.08380833304</ele>
        <time>2022-03-28T03:43:20.777Z</time>
      </trkpt>
      <trkpt lat="46.18416" lon="2.69562">
        <ele>513.18279804317</ele>
        <time>2022-03-28T03:43:21.733Z</time>
      </trkpt>
      <trkpt lat="46.18413" lon="2.6956">
        <ele>515.29483669014</ele>
        <time>2022-03-28T03:43:22.690Z</time>
      </trkpt>
      <trkpt lat="46.18394" lon="2.69538">
        <ele>517.47419210317</ele>
        <time>2022-03-28T03:43:23.652Z</time>
      </trkpt>
      <trkpt lat="46.18379" lon="2.69479">
        <ele>519.77265664902</ele>
        <time>2022-03-28T03:43:24.622Z</time>
      </trkpt>
      <trkpt lat="46.18358" lon="2.69432">
        <ele>522.18206887995</ele>
        <time>2022-03-28T03:43:25.600Z</time>
      </trkpt>
      <trkpt lat="46.18332" lon="2.69438">
        <ele>524.42844115651</ele>
        <time>2022-03-28T03:43:26.583Z</time>
      </trkpt>
      <trkpt lat="46.18315" lon="2.69449">
        <ele>526.40969884577</ele>
        <time>2022-03-28T03:43:27.570Z</time>
      </trkpt>
      <trkpt lat="46.18299" lon="2.69429">
        <ele>528.21781689515</ele>
        <time>2022-03-28T03:43:28.561Z</time>
      </trkpt>
      <trkpt lat="46.18283" lon="2.69401">
        <ele>529.79436235444</ele>
        <time>2022-03-28T03:43:29.557Z</time>
      </trkpt>
      <trkpt lat="46.18271" lon="2.6939">
        <ele>531.2302690703</ele>
        <time>2022-03-28T03:43:30.556Z</time>
      </trkpt>
      <trkpt lat="46.18035" lon="2.69279">
        <ele>532.514358647</ele>
        <time>2022-03-28T03:43:31.605Z</time>
      </trkpt>
      <trkpt lat="46.17736" lon="2.69617">
        <ele>534.10558069293</ele>
        <time>2022-03-28T03:43:32.730Z</time>
      </trkpt>
      <trkpt lat="46.17744" lon="2.69634">
        <ele>534.87753083292</ele>
        <time>2022-03-28T03:43:33.858Z</time>
      </trkpt>
      <trkpt lat="46.17697" lon="2.69688">
        <ele>535.49484702838</ele>
        <time>2022-03-28T03:43:34.998Z</time>
      </trkpt>
      <trkpt lat="46.17684" lon="2.69709">
        <ele>535.87911774017</ele>
        <time>2022-03-28T03:43:36.142Z</time>
      </trkpt>
      <trkpt lat="46.17656" lon="2.69756">
        <ele>535.91536230633</ele>
        <time>2022-03-28T03:43:37.294Z</time>
      </trkpt>
      <trkpt lat="46.17629" lon="2.69792">
        <ele>535.76111027584</ele>
        <time>2022-03-28T03:43:38.454Z</time>
      </trkpt>
      <trkpt lat="46.17517" lon="2.69919">
        <ele>535.61668700476</ele>
        <time>2022-03-28T03:43:39.642Z</time>
      </trkpt>
      <trkpt lat="46.17507" lon="2.69938">
        <ele>535.29631395958</ele>
        <time>2022-03-28T03:43:40.833Z</time>
      </trkpt>
      <trkpt lat="46.175" lon="2.69958">
        <ele>534.87126863882</ele>
        <time>2022-03-28T03:43:42.028Z</time>
      </trkpt>
      <trkpt lat="46.17498" lon="2.69974">
        <ele>534.37134505535</ele>
        <time>2022-03-28T03:43:43.225Z</time>
      </trkpt>
      <trkpt lat="46.1749" lon="2.69976">
        <ele>533.79902298319</ele>
        <time>2022-03-28T03:43:44.423Z</time>
      </trkpt>
      <trkpt lat="46.17463" lon="2.69994">
        <ele>533.12076861879</ele>
        <time>2022-03-28T03:43:45.627Z</time>
      </trkpt>
      <trkpt lat="46.17445" lon="2.70001">
        <ele>532.46785400153</ele>
        <time>2022-03-28T03:43:46.835Z</time>
      </trkpt>
      <trkpt lat="46.17421" lon="2.70002">
        <ele>531.80686283985</ele>
        <time>2022-03-28T03:43:48.048Z</time>
      </trkpt>
      <trkpt lat="46.17405" lon="2.70006">
        <ele>531.13860325063</ele>
        <time>2022-03-28T03:43:49.264Z</time>
      </trkpt>
      <trkpt lat="46.17396" lon="2.70016">
        <ele>530.44099135573</ele>
        <time>2022-03-28T03:43:50.482Z</time>
      </trkpt>
      <trkpt lat="46.17353" lon="2.70048">
        <ele>529.62461638816</ele>
        <time>2022-03-28T03:43:51.710Z</time>
      </trkpt>
      <trkpt lat="46.17341" lon="2.70059">
        <ele>528.86638197212</ele>
        <time>2022-03-28T03:43:52.941Z</time>
      </trkpt>
      <trkpt lat="46.17322" lon="2.7009">
        <ele>528.06349372556</ele>
        <time>2022-03-28T03:43:54.178Z</time>
      </trkpt>
      <trkpt lat="46.17298" lon="2.70121">
        <ele>527.29269721946</ele>
        <time>2022-03-28T03:43:55.421Z</time>
      </trkpt>
      <trkpt lat="46.17298" lon="2.70121">
        <ele>526.45873275255</ele>
        <time>2022-03-28T03:43:56.664Z</time>
      </trkpt>
      <trkpt lat="46.1727" lon="2.70154">
        <ele>525.62936155673</ele>
        <time>2022-03-28T03:43:57.914Z</time>
      </trkpt>
      <trkpt lat="46.17277" lon="2.70175">
        <ele>524.59538434398</ele>
        <time>2022-03-28T03:43:59.167Z</time>
      </trkpt>
      <trkpt lat="46.17263" lon="2.70199">
        <ele>523.46306070012</ele>
        <time>2022-03-28T03:44:00.425Z</time>
      </trkpt>
      <trkpt lat="46.17235" lon="2.70296">
        <ele>522.00364418669</ele>
        <time>2022-03-28T03:44:01.697Z</time>
      </trkpt>
      <trkpt lat="46.17222" lon="2.70313">
        <ele>520.62483602328</ele>
        <time>2022-03-28T03:44:02.973Z</time>
      </trkpt>
      <trkpt lat="46.1722" lon="2.70316">
        <ele>519.09995394196</ele>
        <time>2022-03-28T03:44:04.250Z</time>
      </trkpt>
      <trkpt lat="46.1722" lon="2.70316">
        <ele>517.43625073142</ele>
        <time>2022-03-28T03:44:05.527Z</time>
      </trkpt>
      <trkpt lat="46.17199" lon="2.70344">
        <ele>515.60619365534</ele>
        <time>2022-03-28T03:44:06.809Z</time>
      </trkpt>
      <trkpt lat="46.17146" lon="2.70427">
        <ele>513.64706026982</ele>
        <time>2022-03-28T03:44:08.107Z</time>
      </trkpt>
      <trkpt lat="46.17056" lon="2.70525">
        <ele>511.30348231809</ele>
        <time>2022-03-28T03:44:09.428Z</time>
      </trkpt>
      <trkpt lat="46.17004" lon="2.70558">
        <ele>509.0937724035</ele>
        <time>2022-03-28T03:44:10.760Z</time>
      </trkpt>
      <trkpt lat="46.16986" lon="2.70572">
        <ele>507.1401949531</ele>
        <time>2022-03-28T03:44:12.096Z</time>
      </trkpt>
      <trkpt lat="46.16965" lon="2.70598">
        <ele>505.25459683674</ele>
        <time>2022-03-28T03:44:13.438Z</time>
      </trkpt>
      <trkpt lat="46.16929" lon="2.70633">
        <ele>503.48804144782</ele>
        <time>2022-03-28T03:44:14.788Z</time>
      </trkpt>
      <trkpt lat="46.16919" lon="2.70641">
        <ele>501.94664690872</ele>
        <time>2022-03-28T03:44:16.141Z</time>
      </trkpt>
      <trkpt lat="46.16902" lon="2.70653">
        <ele>500.58506127186</ele>
        <time>2022-03-28T03:44:17.497Z</time>
      </trkpt>
      <trkpt lat="46.1688" lon="2.70671">
        <ele>499.38239008291</ele>
        <time>2022-03-28T03:44:18.858Z</time>
      </trkpt>
      <trkpt lat="46.16816" lon="2.70741">
        <ele>498.27237479559</ele>
        <time>2022-03-28T03:44:20.236Z</time>
      </trkpt>
      <trkpt lat="46.16791" lon="2.70753">
        <ele>497.47845026897</ele>
        <time>2022-03-28T03:44:21.619Z</time>
      </trkpt>
      <trkpt lat="46.16779" lon="2.70756">
        <ele>496.7833407598</ele>
        <time>2022-03-28T03:44:23.004Z</time>
      </trkpt>
      <trkpt lat="46.16766" lon="2.70754">
        <ele>496.21650464808</ele>
        <time>2022-03-28T03:44:24.392Z</time>
      </trkpt>
      <trkpt lat="46.16759" lon="2.70755">
        <ele>495.66140875725</ele>
        <time>2022-03-28T03:44:25.781Z</time>
      </trkpt>
      <trkpt lat="46.16729" lon="2.70797">
        <ele>494.92077313453</ele>
        <time>2022-03-28T03:44:27.179Z</time>
      </trkpt>
      <trkpt lat="46.16713" lon="2.70814">
        <ele>494.49580582603</ele>
        <time>2022-03-28T03:44:28.581Z</time>
      </trkpt>
      <trkpt lat="46.16705" lon="2.70817">
        <ele>494.20533415533</ele>
        <time>2022-03-28T03:44:29.984Z</time>
      </trkpt>
      <trkpt lat="46.16691" lon="2.70817">
        <ele>493.9901738617</ele>
        <time>2022-03-28T03:44:31.390Z</time>
      </trkpt>
      <trkpt lat="46.16664" lon="2.70815">
        <ele>493.8460627964</ele>
        <time>2022-03-28T03:44:32.801Z</time>
      </trkpt>
      <trkpt lat="46.16655" lon="2.70814">
        <ele>493.6331993167</ele>
        <time>2022-03-28T03:44:34.214Z</time>
      </trkpt>
      <trkpt lat="46.16609" lon="2.70828">
        <ele>493.44607169718</ele>
        <time>2022-03-28T03:44:35.637Z</time>
      </trkpt>
      <trkpt lat="46.1656" lon="2.70834">
        <ele>493.17898241887</ele>
        <time>2022-03-28T03:44:37.069Z</time>
      </trkpt>
      <trkpt lat="46.16543" lon="2.7084">
        <ele>492.93708640677</ele>
        <time>2022-03-28T03:44:38.505Z</time>
      </trkpt>
      <trkpt lat="46.16515" lon="2.70856">
        <ele>492.71039384045</ele>
        <time>2022-03-28T03:44:39.947Z</time>
      </trkpt>
      <trkpt lat="46.16503" lon="2.70867">
        <ele>492.64442994065</ele>
        <time>2022-03-28T03:44:41.392Z</time>
      </trkpt>
      <trkpt lat="46.16468" lon="2.70921">
        <ele>492.60458558673</ele>
        <time>2022-03-28T03:44:42.847Z</time>
      </trkpt>
      <trkpt lat="46.16462" lon="2.70925">
        <ele>492.80535859422</ele>
        <time>2022-03-28T03:44:44.303Z</time>
      </trkpt>
      <trkpt lat="46.16433" lon="2.70929">
        <ele>493.23761268359</ele>
        <time>2022-03-28T03:44:45.765Z</time>
      </trkpt>
      <trkpt lat="46.16422" lon="2.70936">
        <ele>493.83469946466</ele>
        <time>2022-03-28T03:44:47.230Z</time>
      </trkpt>
      <trkpt lat="46.16411" lon="2.7095">
        <ele>494.6374392863</ele>
        <time>2022-03-28T03:44:48.698Z</time>
      </trkpt>
      <trkpt lat="46.16403" lon="2.70964">
        <ele>495.65576858837</ele>
        <time>2022-03-28T03:44:50.168Z</time>
      </trkpt>
      <trkpt lat="46.16391" lon="2.70977">
        <ele>496.93332218794</ele>
        <time>2022-03-28T03:44:51.641Z</time>
      </trkpt>
      <trkpt lat="46.16357" lon="2.71007">
        <ele>498.47984239105</ele>
        <time>2022-03-28T03:44:53.122Z</time>
      </trkpt>
      <trkpt lat="46.16275" lon="2.71106">
        <ele>500.5260059607</ele>
        <time>2022-03-28T03:44:54.624Z</time>
      </trkpt>
      <trkpt lat="46.16252" lon="2.71128">
        <ele>502.42384676396</ele>
        <time>2022-03-28T03:44:56.132Z</time>
      </trkpt>
      <trkpt lat="46.16225" lon="2.71083">
        <ele>504.409206477</ele>
        <time>2022-03-28T03:44:57.648Z</time>
      </trkpt>
      <trkpt lat="46.16202" lon="2.71051">
        <ele>506.43458172124</ele>
        <time>2022-03-28T03:44:59.171Z</time>
      </trkpt>
      <trkpt lat="46.16187" lon="2.71052">
        <ele>508.49569304461</ele>
        <time>2022-03-28T03:45:00.697Z</time>
      </trkpt>
      <trkpt lat="46.16175" lon="2.71067">
        <ele>510.55539392703</ele>
        <time>2022-03-28T03:45:02.226Z</time>
      </trkpt>
      <trkpt lat="46.16149" lon="2.71084">
        <ele>512.59917260864</ele>
        <time>2022-03-28T03:45:03.761Z</time>
      </trkpt>
      <trkpt lat="46.16116" lon="2.71113">
        <ele>514.46650997415</ele>
        <time>2022-03-28T03:45:05.303Z</time>
      </trkpt>
      <trkpt lat="46.16085" lon="2.71153">
        <ele>516.31006275654</ele>
        <time>2022-03-28T03:45:06.854Z</time>
      </trkpt>
      <trkpt lat="46.16059" lon="2.71178">
        <ele>518.0279301267</ele>
        <time>2022-03-28T03:45:08.411Z</time>
      </trkpt>
      <trkpt lat="46.16029" lon="2.71202">
        <ele>519.44480518739</ele>
        <time>2022-03-28T03:45:09.975Z</time>
      </trkpt>
      <trkpt lat="46.16006" lon="2.71217">
        <ele>520.55637215024</ele>
        <time>2022-03-28T03:45:11.544Z</time>
      </trkpt>
      <trkpt lat="46.15954" lon="2.71243">
        <ele>521.46458818777</ele>
        <time>2022-03-28T03:45:13.124Z</time>
      </trkpt>
      <trkpt lat="46.15926" lon="2.71261">
        <ele>522.13334619234</ele>
        <time>2022-03-28T03:45:14.710Z</time>
      </trkpt>
      <trkpt lat="46.1588" lon="2.71299">
        <ele>522.48935788387</ele>
        <time>2022-03-28T03:45:16.307Z</time>
      </trkpt>
      <trkpt lat="46.15787" lon="2.71385">
        <ele>522.54644638229</ele>
        <time>2022-03-28T03:45:17.926Z</time>
      </trkpt>
      <trkpt lat="46.15775" lon="2.71389">
        <ele>522.40892456296</ele>
        <time>2022-03-28T03:45:19.547Z</time>
      </trkpt>
      <trkpt lat="46.15716" lon="2.71423">
        <ele>521.95879159203</ele>
        <time>2022-03-28T03:45:21.181Z</time>
      </trkpt>
      <trkpt lat="46.15701" lon="2.71423">
        <ele>521.35224178929</ele>
        <time>2022-03-28T03:45:22.818Z</time>
      </trkpt>
      <trkpt lat="46.15683" lon="2.71418">
        <ele>520.57132863888</ele>
        <time>2022-03-28T03:45:24.459Z</time>
      </trkpt>
      <trkpt lat="46.15662" lon="2.71397">
        <ele>519.6819492446</ele>
        <time>2022-03-28T03:45:26.105Z</time>
      </trkpt>
      <trkpt lat="46.15649" lon="2.71391">
        <ele>518.58578953294</ele>
        <time>2022-03-28T03:45:27.753Z</time>
      </trkpt>
      <trkpt lat="46.15634" lon="2.71388">
        <ele>517.34502858163</ele>
        <time>2022-03-28T03:45:29.404Z</time>
      </trkpt>
      <trkpt lat="46.1562" lon="2.71393">
        <ele>516.01445245241</ele>
        <time>2022-03-28T03:45:31.058Z</time>
      </trkpt>
      <trkpt lat="46.15595" lon="2.71418">
        <ele>514.63533060317</ele>
        <time>2022-03-28T03:45:32.719Z</time>
      </trkpt>
      <trkpt lat="46.15531" lon="2.71528">
        <ele>513.00833475203</ele>
        <time>2022-03-28T03:45:34.399Z</time>
      </trkpt>
      <trkpt lat="46.15531" lon="2.71538">
        <ele>511.64983257521</ele>
        <time>2022-03-28T03:45:36.081Z</time>
      </trkpt>
      <trkpt lat="46.15531" lon="2.71542">
        <ele>510.3234755643</ele>
        <time>2022-03-28T03:45:37.763Z</time>
      </trkpt>
      <trkpt lat="46.15527" lon="2.71611">
        <ele>509.14381689058</ele>
        <time>2022-03-28T03:45:39.455Z</time>
      </trkpt>
      <trkpt lat="46.15494" lon="2.71603">
        <ele>507.85055019537</ele>
        <time>2022-03-28T03:45:41.154Z</time>
      </trkpt>
      <trkpt lat="46.1547" lon="2.71606">
        <ele>506.73191901593</ele>
        <time>2022-03-28T03:45:42.857Z</time>
      </trkpt>
      <trkpt lat="46.15442" lon="2.71624">
        <ele>505.71327152756</ele>
        <time>2022-03-28T03:45:44.567Z</time>
      </trkpt>
      <trkpt lat="46.15422" lon="2.71653">
        <ele>504.71211581322</ele>
        <time>2022-03-28T03:45:46.282Z</time>
      </trkpt>
      <trkpt lat="46.15415" lon="2.71667">
        <ele>503.83168803775</ele>
        <time>2022-03-28T03:45:48.000Z</time>
      </trkpt>
      <trkpt lat="46.15397" lon="2.71694">
        <ele>503.07385551438</ele>
        <time>2022-03-28T03:45:49.723Z</time>
      </trkpt>
      <trkpt lat="46.15348" lon="2.71737">
        <ele>502.38637045269</ele>
        <time>2022-03-28T03:45:51.457Z</time>
      </trkpt>
      <trkpt lat="46.15333" lon="2.7177">
        <ele>502.11708614379</ele>
        <time>2022-03-28T03:45:53.197Z</time>
      </trkpt>
      <trkpt lat="46.15283" lon="2.71896">
        <ele>502.06832305506</ele>
        <time>2022-03-28T03:45:54.957Z</time>
      </trkpt>
      <trkpt lat="46.15266" lon="2.71932">
        <ele>502.30955446007</ele>
        <time>2022-03-28T03:45:56.723Z</time>
      </trkpt>
      <trkpt lat="46.15243" lon="2.71968">
        <ele>502.78733651358</ele>
        <time>2022-03-28T03:45:58.496Z</time>
      </trkpt>
      <trkpt lat="46.15226" lon="2.71978">
        <ele>503.64908944862</ele>
        <time>2022-03-28T03:46:00.273Z</time>
      </trkpt>
      <trkpt lat="46.15201" lon="2.71968">
        <ele>504.86536279635</ele>
        <time>2022-03-28T03:46:02.055Z</time>
      </trkpt>
      <trkpt lat="46.15131" lon="2.7192">
        <ele>506.52192847574</ele>
        <time>2022-03-28T03:46:03.852Z</time>
      </trkpt>
      <trkpt lat="46.15131" lon="2.7192">
        <ele>508.36822140696</ele>
        <time>2022-03-28T03:46:05.649Z</time>
      </trkpt>
      <trkpt lat="46.15129" lon="2.71919">
        <ele>512.93357967926</ele>
        <time>2022-03-28T03:46:07.447Z</time>
      </trkpt>
      <trkpt lat="46.15044" lon="2.71883">
        <ele>516.0291228262</ele>
        <time>2022-03-28T03:46:09.262Z</time>
      </trkpt>
      <trkpt lat="46.15" lon="2.71879">
        <ele>519.09704115945</ele>
        <time>2022-03-28T03:46:11.086Z</time>
      </trkpt>
      <trkpt lat="46.14967" lon="2.71881">
        <ele>522.15201958945</ele>
        <time>2022-03-28T03:46:12.917Z</time>
      </trkpt>
      <trkpt lat="46.14953" lon="2.71882">
        <ele>525.09963180871</ele>
        <time>2022-03-28T03:46:14.751Z</time>
      </trkpt>
      <trkpt lat="46.14937" lon="2.71887">
        <ele>527.99713167281</ele>
        <time>2022-03-28T03:46:16.588Z</time>
      </trkpt>
      <trkpt lat="46.14926" lon="2.71891">
        <ele>530.76371288321</ele>
        <time>2022-03-28T03:46:18.427Z</time>
      </trkpt>
      <trkpt lat="46.14918" lon="2.71898">
        <ele>533.39529703587</ele>
        <time>2022-03-28T03:46:20.268Z</time>
      </trkpt>
      <trkpt lat="46.14906" lon="2.71916">
        <ele>535.87713418896</ele>
        <time>2022-03-28T03:46:22.113Z</time>
      </trkpt>
      <trkpt lat="46.149" lon="2.71928">
        <ele>538.10351361752</ele>
        <time>2022-03-28T03:46:23.960Z</time>
      </trkpt>
      <trkpt lat="46.14865" lon="2.72018">
        <ele>540.39999285162</ele>
        <time>2022-03-28T03:46:25.821Z</time>
      </trkpt>
      <trkpt lat="46.14847" lon="2.72051">
        <ele>542.18875757733</ele>
        <time>2022-03-28T03:46:27.688Z</time>
      </trkpt>
      <trkpt lat="46.14833" lon="2.72097">
        <ele>543.69259075978</ele>
        <time>2022-03-28T03:46:29.562Z</time>
      </trkpt>
      <trkpt lat="46.14821" lon="2.72129">
        <ele>544.85551584268</ele>
        <time>2022-03-28T03:46:31.441Z</time>
      </trkpt>
      <trkpt lat="46.14781" lon="2.72196">
        <ele>545.72311342716</ele>
        <time>2022-03-28T03:46:33.332Z</time>
      </trkpt>
      <trkpt lat="46.1475" lon="2.72231">
        <ele>546.47495265786</ele>
        <time>2022-03-28T03:46:35.231Z</time>
      </trkpt>
      <trkpt lat="46.1467" lon="2.72291">
        <ele>547.00966928755</ele>
        <time>2022-03-28T03:46:37.148Z</time>
      </trkpt>
      <trkpt lat="46.1466" lon="2.72309">
        <ele>547.48792029563</ele>
        <time>2022-03-28T03:46:39.068Z</time>
      </trkpt>
      <trkpt lat="46.14652" lon="2.72312">
        <ele>547.91672746668</ele>
        <time>2022-03-28T03:46:40.990Z</time>
      </trkpt>
      <trkpt lat="46.14586" lon="2.72382">
        <ele>548.32586028228</ele>
        <time>2022-03-28T03:46:42.928Z</time>
      </trkpt>
      <trkpt lat="46.14483" lon="2.72446">
        <ele>548.82813061115</ele>
        <time>2022-03-28T03:46:44.889Z</time>
      </trkpt>
      <trkpt lat="46.14466" lon="2.72453">
        <ele>549.26229762113</ele>
        <time>2022-03-28T03:46:46.853Z</time>
      </trkpt>
      <trkpt lat="46.14449" lon="2.72453">
        <ele>549.68867345037</ele>
        <time>2022-03-28T03:46:48.821Z</time>
      </trkpt>
      <trkpt lat="46.1439" lon="2.72438">
        <ele>550.10012672163</ele>
        <time>2022-03-28T03:46:50.801Z</time>
      </trkpt>
      <trkpt lat="46.14359" lon="2.72433">
        <ele>550.81149968148</ele>
        <time>2022-03-28T03:46:52.787Z</time>
      </trkpt>
      <trkpt lat="46.14336" lon="2.72424">
        <ele>551.67014142345</ele>
        <time>2022-03-28T03:46:54.778Z</time>
      </trkpt>
      <trkpt lat="46.14333" lon="2.72424">
        <ele>552.72664808325</ele>
        <time>2022-03-28T03:46:56.769Z</time>
      </trkpt>
      <trkpt lat="46.14295" lon="2.72434">
        <ele>554.08103571461</ele>
        <time>2022-03-28T03:46:58.768Z</time>
      </trkpt>
      <trkpt lat="46.14277" lon="2.72433">
        <ele>555.57894420189</ele>
        <time>2022-03-28T03:47:00.771Z</time>
      </trkpt>
      <trkpt lat="46.142" lon="2.72421">
        <ele>557.56673428731</ele>
        <time>2022-03-28T03:47:02.789Z</time>
      </trkpt>
      <trkpt lat="46.14163" lon="2.72421">
        <ele>559.45893587266</ele>
        <time>2022-03-28T03:47:04.815Z</time>
      </trkpt>
      <trkpt lat="46.14134" lon="2.72429">
        <ele>561.44788121782</ele>
        <time>2022-03-28T03:47:06.846Z</time>
      </trkpt>
      <trkpt lat="46.14117" lon="2.72436">
        <ele>563.59417230554</ele>
        <time>2022-03-28T03:47:08.881Z</time>
      </trkpt>
      <trkpt lat="46.14079" lon="2.72448">
        <ele>565.7861233468</ele>
        <time>2022-03-28T03:47:10.924Z</time>
      </trkpt>
      <trkpt lat="46.14034" lon="2.7247">
        <ele>568.11162177243</ele>
        <time>2022-03-28T03:47:12.976Z</time>
      </trkpt>
      <trkpt lat="46.14007" lon="2.72486">
        <ele>570.21349371697</ele>
        <time>2022-03-28T03:47:15.034Z</time>
      </trkpt>
      <trkpt lat="46.13994" lon="2.72488">
        <ele>572.12158021631</ele>
        <time>2022-03-28T03:47:17.095Z</time>
      </trkpt>
      <trkpt lat="46.1397" lon="2.72487">
        <ele>573.99253366107</ele>
        <time>2022-03-28T03:47:19.161Z</time>
      </trkpt>
      <trkpt lat="46.13967" lon="2.7249">
        <ele>575.71957250991</ele>
        <time>2022-03-28T03:47:21.227Z</time>
      </trkpt>
      <trkpt lat="46.13966" lon="2.72496">
        <ele>577.36607587808</ele>
        <time>2022-03-28T03:47:23.294Z</time>
      </trkpt>
      <trkpt lat="46.13968" lon="2.72507">
        <ele>578.95384804108</ele>
        <time>2022-03-28T03:47:25.363Z</time>
      </trkpt>
      <trkpt lat="46.13997" lon="2.72561">
        <ele>580.71752258691</ele>
        <time>2022-03-28T03:47:27.441Z</time>
      </trkpt>
      <trkpt lat="46.13998" lon="2.72569">
        <ele>582.26209884398</ele>
        <time>2022-03-28T03:47:29.521Z</time>
      </trkpt>
      <trkpt lat="46.13931" lon="2.72563">
        <ele>583.7749588946</ele>
        <time>2022-03-28T03:47:31.614Z</time>
      </trkpt>
      <trkpt lat="46.1391" lon="2.72555">
        <ele>585.36845862378</ele>
        <time>2022-03-28T03:47:33.711Z</time>
      </trkpt>
      <trkpt lat="46.1379" lon="2.7247">
        <ele>587.29244246873</ele>
        <time>2022-03-28T03:47:35.835Z</time>
      </trkpt>
      <trkpt lat="46.1379" lon="2.7247">
        <ele>589.07006488009</ele>
        <time>2022-03-28T03:47:37.959Z</time>
      </trkpt>
      <trkpt lat="46.13786" lon="2.72465">
        <ele>590.97442676709</ele>
        <time>2022-03-28T03:47:40.084Z</time>
      </trkpt>
      <trkpt lat="46.1378" lon="2.72479">
        <ele>593.11237040747</ele>
        <time>2022-03-28T03:47:42.211Z</time>
      </trkpt>
      <trkpt lat="46.13746" lon="2.7251">
        <ele>595.44239414232</ele>
        <time>2022-03-28T03:47:44.346Z</time>
      </trkpt>
      <trkpt lat="46.1373" lon="2.7253">
        <ele>598.12369664999</ele>
        <time>2022-03-28T03:47:46.486Z</time>
      </trkpt>
      <trkpt lat="46.13691" lon="2.72574">
        <ele>601.26478243107</ele>
        <time>2022-03-28T03:47:48.636Z</time>
      </trkpt>
      <trkpt lat="46.13674" lon="2.72586">
        <ele>604.30381198875</ele>
        <time>2022-03-28T03:47:50.789Z</time>
      </trkpt>
      <trkpt lat="46.13643" lon="2.72598">
        <ele>607.58877835607</ele>
        <time>2022-03-28T03:47:52.949Z</time>
      </trkpt>
      <trkpt lat="46.13594" lon="2.72621">
        <ele>611.12995418496</ele>
        <time>2022-03-28T03:47:55.119Z</time>
      </trkpt>
      <trkpt lat="46.13548" lon="2.72651">
        <ele>614.68995332541</ele>
        <time>2022-03-28T03:47:57.299Z</time>
      </trkpt>
      <trkpt lat="46.13542" lon="2.72665">
        <ele>618.20429405599</ele>
        <time>2022-03-28T03:47:59.482Z</time>
      </trkpt>
      <trkpt lat="46.1354" lon="2.72689">
        <ele>621.85965473119</ele>
        <time>2022-03-28T03:48:01.668Z</time>
      </trkpt>
      <trkpt lat="46.1353" lon="2.72747">
        <ele>625.71396779556</ele>
        <time>2022-03-28T03:48:03.862Z</time>
      </trkpt>
      <trkpt lat="46.13512" lon="2.72817">
        <ele>629.35043574483</ele>
        <time>2022-03-28T03:48:06.067Z</time>
      </trkpt>
      <trkpt lat="46.13479" lon="2.72857">
        <ele>632.82093944982</ele>
        <time>2022-03-28T03:48:08.280Z</time>
      </trkpt>
      <trkpt lat="46.13452" lon="2.729">
        <ele>635.95062617573</ele>
        <time>2022-03-28T03:48:10.501Z</time>
      </trkpt>
      <trkpt lat="46.13358" lon="2.72994">
        <ele>638.76293524839</ele>
        <time>2022-03-28T03:48:12.745Z</time>
      </trkpt>
      <trkpt lat="46.13301" lon="2.73066">
        <ele>641.35519099159</ele>
        <time>2022-03-28T03:48:15.005Z</time>
      </trkpt>
      <trkpt lat="46.13295" lon="2.73084">
        <ele>643.38649999522</ele>
        <time>2022-03-28T03:48:17.267Z</time>
      </trkpt>
      <trkpt lat="46.13291" lon="2.73116">
        <ele>645.00327670645</ele>
        <time>2022-03-28T03:48:19.534Z</time>
      </trkpt>
      <trkpt lat="46.13281" lon="2.73142">
        <ele>646.36512710275</ele>
        <time>2022-03-28T03:48:21.805Z</time>
      </trkpt>
      <trkpt lat="46.13265" lon="2.73164">
        <ele>647.38081278316</ele>
        <time>2022-03-28T03:48:24.080Z</time>
      </trkpt>
      <trkpt lat="46.13231" lon="2.73185">
        <ele>647.98602259057</ele>
        <time>2022-03-28T03:48:26.363Z</time>
      </trkpt>
      <trkpt lat="46.13226" lon="2.73195">
        <ele>648.23033806317</ele>
        <time>2022-03-28T03:48:28.647Z</time>
      </trkpt>
      <trkpt lat="46.13225" lon="2.73199">
        <ele>648.16810380378</ele>
        <time>2022-03-28T03:48:30.932Z</time>
      </trkpt>
      <trkpt lat="46.13226" lon="2.73213">
        <ele>647.79681179979</ele>
        <time>2022-03-28T03:48:33.219Z</time>
      </trkpt>
      <trkpt lat="46.1323" lon="2.73236">
        <ele>647.11498525908</ele>
        <time>2022-03-28T03:48:35.509Z</time>
      </trkpt>
      <trkpt lat="46.13227" lon="2.73266">
        <ele>646.22529863753</ele>
        <time>2022-03-28T03:48:37.804Z</time>
      </trkpt>
      <trkpt lat="46.13218" lon="2.73288">
        <ele>645.12752831234</ele>
        <time>2022-03-28T03:48:40.102Z</time>
      </trkpt>
      <trkpt lat="46.13207" lon="2.73305">
        <ele>643.77759476373</ele>
        <time>2022-03-28T03:48:42.403Z</time>
      </trkpt>
      <trkpt lat="46.13177" lon="2.73377">
        <ele>642.04397954261</ele>
        <time>2022-03-28T03:48:44.716Z</time>
      </trkpt>
      <trkpt lat="46.13167" lon="2.73435">
        <ele>640.15447127711</ele>
        <time>2022-03-28T03:48:47.037Z</time>
      </trkpt>
      <trkpt lat="46.13153" lon="2.73472">
        <ele>638.24476328382</ele>
        <time>2022-03-28T03:48:49.364Z</time>
      </trkpt>
      <trkpt lat="46.13142" lon="2.73492">
        <ele>636.24040858073</ele>
        <time>2022-03-28T03:48:51.695Z</time>
      </trkpt>
      <trkpt lat="46.13087" lon="2.73553">
        <ele>633.98271438081</ele>
        <time>2022-03-28T03:48:54.040Z</time>
      </trkpt>
      <trkpt lat="46.13034" lon="2.73637">
        <ele>631.83355621496</ele>
        <time>2022-03-28T03:48:56.400Z</time>
      </trkpt>
      <trkpt lat="46.1301" lon="2.7368">
        <ele>629.82270517331</ele>
        <time>2022-03-28T03:48:58.768Z</time>
      </trkpt>
      <trkpt lat="46.12999" lon="2.73704">
        <ele>627.96663482143</ele>
        <time>2022-03-28T03:49:01.140Z</time>
      </trkpt>
      <trkpt lat="46.12996" lon="2.73708">
        <ele>626.25921390739</ele>
        <time>2022-03-28T03:49:03.513Z</time>
      </trkpt>
      <trkpt lat="46.1299" lon="2.73716">
        <ele>624.67202331535</ele>
        <time>2022-03-28T03:49:05.888Z</time>
      </trkpt>
      <trkpt lat="46.12986" lon="2.73725">
        <ele>623.24188291775</ele>
        <time>2022-03-28T03:49:08.264Z</time>
      </trkpt>
      <trkpt lat="46.12976" lon="2.73748">
        <ele>621.94520770025</ele>
        <time>2022-03-28T03:49:10.644Z</time>
      </trkpt>
      <trkpt lat="46.12966" lon="2.73782">
        <ele>620.79653708397</ele>
        <time>2022-03-28T03:49:13.029Z</time>
      </trkpt>
      <trkpt lat="46.12959" lon="2.73786">
        <ele>619.7467246796</ele>
        <time>2022-03-28T03:49:15.415Z</time>
      </trkpt>
      <trkpt lat="46.12959" lon="2.73786">
        <ele>618.82072432341</ele>
        <time>2022-03-28T03:49:17.801Z</time>
      </trkpt>
      <trkpt lat="46.12939" lon="2.73797">
        <ele>617.91282571403</ele>
        <time>2022-03-28T03:49:20.192Z</time>
      </trkpt>
      <trkpt lat="46.12885" lon="2.73844">
        <ele>617.02094537393</ele>
        <time>2022-03-28T03:49:22.595Z</time>
      </trkpt>
      <trkpt lat="46.1287" lon="2.73865">
        <ele>616.28228083975</ele>
        <time>2022-03-28T03:49:25.003Z</time>
      </trkpt>
      <trkpt lat="46.1286" lon="2.73889">
        <ele>615.65223786684</ele>
        <time>2022-03-28T03:49:27.414Z</time>
      </trkpt>
      <trkpt lat="46.12853" lon="2.73901">
        <ele>615.05780750995</ele>
        <time>2022-03-28T03:49:29.828Z</time>
      </trkpt>
      <trkpt lat="46.12846" lon="2.7391">
        <ele>614.45430146966</ele>
        <time>2022-03-28T03:49:32.244Z</time>
      </trkpt>
      <trkpt lat="46.12848" lon="2.73939">
        <ele>613.93361428555</ele>
        <time>2022-03-28T03:49:34.664Z</time>
      </trkpt>
      <trkpt lat="46.12835" lon="2.73938">
        <ele>613.33521411432</ele>
        <time>2022-03-28T03:49:37.086Z</time>
      </trkpt>
      <trkpt lat="46.12831" lon="2.73943">
        <ele>612.77674482859</ele>
        <time>2022-03-28T03:49:39.509Z</time>
      </trkpt>
      <trkpt lat="46.128" lon="2.73988">
        <ele>612.13525253566</ele>
        <time>2022-03-28T03:49:41.941Z</time>
      </trkpt>
      <trkpt lat="46.12789" lon="2.74008">
        <ele>611.55814585697</ele>
        <time>2022-03-28T03:49:44.377Z</time>
      </trkpt>
      <trkpt lat="46.12776" lon="2.74052">
        <ele>611.02022709217</ele>
        <time>2022-03-28T03:49:46.819Z</time>
      </trkpt>
      <trkpt lat="46.12773" lon="2.74107">
        <ele>610.4556949149</ele>
        <time>2022-03-28T03:49:49.269Z</time>
      </trkpt>
      <trkpt lat="46.12765" lon="2.74148">
        <ele>609.77565355214</ele>
        <time>2022-03-28T03:49:51.725Z</time>
      </trkpt>
      <trkpt lat="46.12759" lon="2.74168">
        <ele>609.09242079488</ele>
        <time>2022-03-28T03:49:54.184Z</time>
      </trkpt>
      <trkpt lat="46.12749" lon="2.74188">
        <ele>608.34274798378</ele>
        <time>2022-03-28T03:49:56.646Z</time>
      </trkpt>
      <trkpt lat="46.12736" lon="2.74204">
        <ele>607.61208951994</ele>
        <time>2022-03-28T03:49:59.112Z</time>
      </trkpt>
      <trkpt lat="46.12725" lon="2.74226">
        <ele>606.89024434421</ele>
        <time>2022-03-28T03:50:01.582Z</time>
      </trkpt>
      <trkpt lat="46.1272" lon="2.74247">
        <ele>606.29077171456</ele>
        <time>2022-03-28T03:50:04.055Z</time>
      </trkpt>
      <trkpt lat="46.12717" lon="2.74298">
        <ele>605.75253682308</ele>
        <time>2022-03-28T03:50:06.535Z</time>
      </trkpt>
      <trkpt lat="46.12712" lon="2.74312">
        <ele>605.2121013697</ele>
        <time>2022-03-28T03:50:09.017Z</time>
      </trkpt>
      <trkpt lat="46.127" lon="2.74334">
        <ele>604.66076022823</ele>
        <time>2022-03-28T03:50:11.503Z</time>
      </trkpt>
      <trkpt lat="46.12692" lon="2.7435">
        <ele>604.21590070633</ele>
        <time>2022-03-28T03:50:13.992Z</time>
      </trkpt>
      <trkpt lat="46.12673" lon="2.74425">
        <ele>603.8055024501</ele>
        <time>2022-03-28T03:50:16.492Z</time>
      </trkpt>
      <trkpt lat="46.12662" lon="2.74445">
        <ele>603.61453644917</ele>
        <time>2022-03-28T03:50:18.995Z</time>
      </trkpt>
      <trkpt lat="46.1266" lon="2.74447">
        <ele>603.47371108619</ele>
        <time>2022-03-28T03:50:21.499Z</time>
      </trkpt>
      <trkpt lat="46.12633" lon="2.74462">
        <ele>603.46564124526</ele>
        <time>2022-03-28T03:50:24.008Z</time>
      </trkpt>
      <trkpt lat="46.12614" lon="2.7447">
        <ele>603.53223502232</ele>
        <time>2022-03-28T03:50:26.521Z</time>
      </trkpt>
      <trkpt lat="46.126" lon="2.74473">
        <ele>603.66377677587</ele>
        <time>2022-03-28T03:50:29.037Z</time>
      </trkpt>
      <trkpt lat="46.12585" lon="2.74473">
        <ele>603.87140545554</ele>
        <time>2022-03-28T03:50:31.556Z</time>
      </trkpt>
      <trkpt lat="46.12578" lon="2.7447">
        <ele>604.14215692709</ele>
        <time>2022-03-28T03:50:34.077Z</time>
      </trkpt>
      <trkpt lat="46.12568" lon="2.74467">
        <ele>604.50902911191</ele>
        <time>2022-03-28T03:50:36.600Z</time>
      </trkpt>
      <trkpt lat="46.12561" lon="2.74469">
        <ele>604.95754336357</ele>
        <time>2022-03-28T03:50:39.124Z</time>
      </trkpt>
      <trkpt lat="46.12535" lon="2.74487">
        <ele>605.56044829276</ele>
        <time>2022-03-28T03:50:41.654Z</time>
      </trkpt>
      <trkpt lat="46.12538" lon="2.74511">
        <ele>606.05846402336</ele>
        <time>2022-03-28T03:50:44.187Z</time>
      </trkpt>
      <trkpt lat="46.12541" lon="2.7461">
        <ele>606.56925789177</ele>
        <time>2022-03-28T03:50:46.734Z</time>
      </trkpt>
      <trkpt lat="46.1254" lon="2.74625">
        <ele>607.26552560636</ele>
        <time>2022-03-28T03:50:49.283Z</time>
      </trkpt>
      <trkpt lat="46.12539" lon="2.74629">
        <ele>607.99116264631</ele>
        <time>2022-03-28T03:50:51.833Z</time>
      </trkpt>
      <trkpt lat="46.12539" lon="2.74629">
        <ele>608.74526521494</ele>
        <time>2022-03-28T03:50:54.383Z</time>
      </trkpt>
      <trkpt lat="46.12537" lon="2.74655">
        <ele>609.62368095321</ele>
        <time>2022-03-28T03:50:56.937Z</time>
      </trkpt>
      <trkpt lat="46.12538" lon="2.74716">
        <ele>610.59841706496</ele>
        <time>2022-03-28T03:50:59.499Z</time>
      </trkpt>
      <trkpt lat="46.12538" lon="2.74716">
        <ele>611.41964480682</ele>
        <time>2022-03-28T03:51:02.061Z</time>
      </trkpt>
      <trkpt lat="46.12539" lon="2.74746">
        <ele>612.22588276596</ele>
        <time>2022-03-28T03:51:04.627Z</time>
      </trkpt>
      <trkpt lat="46.12541" lon="2.7477">
        <ele>613.03283479359</ele>
        <time>2022-03-28T03:51:07.197Z</time>
      </trkpt>
      <trkpt lat="46.12543" lon="2.74818">
        <ele>613.86014588693</ele>
        <time>2022-03-28T03:51:09.773Z</time>
      </trkpt>
      <trkpt lat="46.12542" lon="2.74851">
        <ele>614.60548393673</ele>
        <time>2022-03-28T03:51:12.354Z</time>
      </trkpt>
      <trkpt lat="46.12541" lon="2.74879">
        <ele>615.29252066851</ele>
        <time>2022-03-28T03:51:14.939Z</time>
      </trkpt>
      <trkpt lat="46.12533" lon="2.74949">
        <ele>615.97925738076</ele>
        <time>2022-03-28T03:51:17.534Z</time>
      </trkpt>
      <trkpt lat="46.1253" lon="2.75">
        <ele>616.57022054077</ele>
        <time>2022-03-28T03:51:20.136Z</time>
      </trkpt>
      <trkpt lat="46.12526" lon="2.75022">
        <ele>617.07702576955</ele>
        <time>2022-03-28T03:51:22.741Z</time>
      </trkpt>
      <trkpt lat="46.12505" lon="2.75078">
        <ele>617.51587024563</ele>
        <time>2022-03-28T03:51:25.355Z</time>
      </trkpt>
      <trkpt lat="46.12499" lon="2.75103">
        <ele>617.94533433133</ele>
        <time>2022-03-28T03:51:27.973Z</time>
      </trkpt>
      <trkpt lat="46.12494" lon="2.75162">
        <ele>618.34375602509</ele>
        <time>2022-03-28T03:51:30.599Z</time>
      </trkpt>
      <trkpt lat="46.12483" lon="2.75183">
        <ele>618.55509166677</ele>
        <time>2022-03-28T03:51:33.228Z</time>
      </trkpt>
      <trkpt lat="46.12465" lon="2.75211">
        <ele>618.69944757949</ele>
        <time>2022-03-28T03:51:35.863Z</time>
      </trkpt>
      <trkpt lat="46.12442" lon="2.7526">
        <ele>618.78395207541</ele>
        <time>2022-03-28T03:51:38.506Z</time>
      </trkpt>
      <trkpt lat="46.12434" lon="2.75282">
        <ele>619.00473364433</ele>
        <time>2022-03-28T03:51:41.152Z</time>
      </trkpt>
      <trkpt lat="46.12414" lon="2.75392">
        <ele>619.1208367111</ele>
        <time>2022-03-28T03:51:43.814Z</time>
      </trkpt>
      <trkpt lat="46.12422" lon="2.75469">
        <ele>619.35897231669</ele>
        <time>2022-03-28T03:51:46.487Z</time>
      </trkpt>
      <trkpt lat="46.1243" lon="2.75574">
        <ele>619.88156666144</ele>
        <time>2022-03-28T03:51:49.175Z</time>
      </trkpt>
      <trkpt lat="46.12424" lon="2.75654">
        <ele>620.44756590037</ele>
        <time>2022-03-28T03:51:51.874Z</time>
      </trkpt>
      <trkpt lat="46.12421" lon="2.75741">
        <ele>621.05009631212</ele>
        <time>2022-03-28T03:51:54.585Z</time>
      </trkpt>
      <trkpt lat="46.12419" lon="2.75769">
        <ele>621.7423379701</ele>
        <time>2022-03-28T03:51:57.300Z</time>
      </trkpt>
      <trkpt lat="46.12412" lon="2.75802">
        <ele>622.57177561173</ele>
        <time>2022-03-28T03:52:00.020Z</time>
      </trkpt>
      <trkpt lat="46.12409" lon="2.75817">
        <ele>623.43809832409</ele>
        <time>2022-03-28T03:52:02.742Z</time>
      </trkpt>
      <trkpt lat="46.12409" lon="2.7582">
        <ele>625.40878645457</ele>
        <time>2022-03-28T03:52:05.464Z</time>
      </trkpt>
      <trkpt lat="46.12409" lon="2.7582">
        <ele>626.55476854504</ele>
        <time>2022-03-28T03:52:08.186Z</time>
      </trkpt>
      <trkpt lat="46.124" lon="2.75869">
        <ele>627.89709644874</ele>
        <time>2022-03-28T03:52:10.916Z</time>
      </trkpt>
      <trkpt lat="46.12386" lon="2.7591">
        <ele>629.35135260355</ele>
        <time>2022-03-28T03:52:13.652Z</time>
      </trkpt>
      <trkpt lat="46.12377" lon="2.75922">
        <ele>630.91272353987</ele>
        <time>2022-03-28T03:52:16.390Z</time>
      </trkpt>
      <trkpt lat="46.12372" lon="2.75937">
        <ele>632.5331452039</ele>
        <time>2022-03-28T03:52:19.131Z</time>
      </trkpt>
      <trkpt lat="46.1237" lon="2.75956">
        <ele>634.27465948924</ele>
        <time>2022-03-28T03:52:21.874Z</time>
      </trkpt>
      <trkpt lat="46.12368" lon="2.75985">
        <ele>636.10092868973</ele>
        <time>2022-03-28T03:52:24.621Z</time>
      </trkpt>
      <trkpt lat="46.12366" lon="2.76003">
        <ele>637.9663030374</ele>
        <time>2022-03-28T03:52:27.371Z</time>
      </trkpt>
      <trkpt lat="46.12357" lon="2.76027">
        <ele>639.91127211042</ele>
        <time>2022-03-28T03:52:30.125Z</time>
      </trkpt>
      <trkpt lat="46.12342" lon="2.76055">
        <ele>641.88013752816</ele>
        <time>2022-03-28T03:52:32.884Z</time>
      </trkpt>
      <trkpt lat="46.12334" lon="2.76075">
        <ele>643.8251263039</ele>
        <time>2022-03-28T03:52:35.646Z</time>
      </trkpt>
      <trkpt lat="46.12319" lon="2.76165">
        <ele>645.94729461738</ele>
        <time>2022-03-28T03:52:38.421Z</time>
      </trkpt>
      <trkpt lat="46.12309" lon="2.76205">
        <ele>647.83141663516</ele>
        <time>2022-03-28T03:52:41.202Z</time>
      </trkpt>
      <trkpt lat="46.12301" lon="2.76234">
        <ele>649.59879808062</ele>
        <time>2022-03-28T03:52:43.987Z</time>
      </trkpt>
      <trkpt lat="46.12279" lon="2.76214">
        <ele>651.2448057161</ele>
        <time>2022-03-28T03:52:46.777Z</time>
      </trkpt>
      <trkpt lat="46.12272" lon="2.76213">
        <ele>652.85319688794</ele>
        <time>2022-03-28T03:52:49.569Z</time>
      </trkpt>
      <trkpt lat="46.12248" lon="2.76222">
        <ele>654.47713101464</ele>
        <time>2022-03-28T03:52:52.365Z</time>
      </trkpt>
      <trkpt lat="46.12238" lon="2.76234">
        <ele>656.05025572982</ele>
        <time>2022-03-28T03:52:55.164Z</time>
      </trkpt>
      <trkpt lat="46.12232" lon="2.76226">
        <ele>657.57703025836</ele>
        <time>2022-03-28T03:52:57.965Z</time>
      </trkpt>
      <trkpt lat="46.12209" lon="2.76234">
        <ele>659.25088458199</ele>
        <time>2022-03-28T03:53:00.771Z</time>
      </trkpt>
      <trkpt lat="46.12197" lon="2.76255">
        <ele>660.9037067005</ele>
        <time>2022-03-28T03:53:03.580Z</time>
      </trkpt>
      <trkpt lat="46.12185" lon="2.76268">
        <ele>662.59499767838</ele>
        <time>2022-03-28T03:53:06.392Z</time>
      </trkpt>
      <trkpt lat="46.1217" lon="2.76275">
        <ele>664.32057164945</ele>
        <time>2022-03-28T03:53:09.208Z</time>
      </trkpt>
      <trkpt lat="46.12164" lon="2.76273">
        <ele>666.08463171164</ele>
        <time>2022-03-28T03:53:12.025Z</time>
      </trkpt>
      <trkpt lat="46.12121" lon="2.76287">
        <ele>667.96772518602</ele>
        <time>2022-03-28T03:53:14.851Z</time>
      </trkpt>
      <trkpt lat="46.1211" lon="2.76294">
        <ele>669.90966084952</ele>
        <time>2022-03-28T03:53:17.679Z</time>
      </trkpt>
      <trkpt lat="46.12101" lon="2.76303">
        <ele>671.91737194462</ele>
        <time>2022-03-28T03:53:20.509Z</time>
      </trkpt>
      <trkpt lat="46.1208" lon="2.76346">
        <ele>674.0952759678</ele>
        <time>2022-03-28T03:53:23.346Z</time>
      </trkpt>
      <trkpt lat="46.1207" lon="2.76373">
        <ele>676.25830052527</ele>
        <time>2022-03-28T03:53:26.188Z</time>
      </trkpt>
      <trkpt lat="46.12057" lon="2.76434">
        <ele>678.47400352207</ele>
        <time>2022-03-28T03:53:29.039Z</time>
      </trkpt>
      <trkpt lat="46.12044" lon="2.76465">
        <ele>680.47517834666</ele>
        <time>2022-03-28T03:53:31.895Z</time>
      </trkpt>
      <trkpt lat="46.12022" lon="2.76504">
        <ele>682.40361632384</ele>
        <time>2022-03-28T03:53:34.758Z</time>
      </trkpt>
      <trkpt lat="46.12012" lon="2.76515">
        <ele>684.02982776714</ele>
        <time>2022-03-28T03:53:37.623Z</time>
      </trkpt>
      <trkpt lat="46.11982" lon="2.76538">
        <ele>685.43728917932</ele>
        <time>2022-03-28T03:53:40.495Z</time>
      </trkpt>
      <trkpt lat="46.11951" lon="2.76557">
        <ele>686.53833175506</ele>
        <time>2022-03-28T03:53:43.374Z</time>
      </trkpt>
      <trkpt lat="46.11939" lon="2.76567">
        <ele>687.30633625284</ele>
        <time>2022-03-28T03:53:46.255Z</time>
      </trkpt>
      <trkpt lat="46.11915" lon="2.76583">
        <ele>687.72060434972</ele>
        <time>2022-03-28T03:53:49.142Z</time>
      </trkpt>
      <trkpt lat="46.11915" lon="2.76583">
        <ele>687.69003599038</ele>
        <time>2022-03-28T03:53:52.029Z</time>
      </trkpt>
      <trkpt lat="46.11913" lon="2.76584">
        <ele>686.37402096489</ele>
        <time>2022-03-28T03:53:54.916Z</time>
      </trkpt>
      <trkpt lat="46.11913" lon="2.76584">
        <ele>685.08139718307</ele>
        <time>2022-03-28T03:53:57.803Z</time>
      </trkpt>
      <trkpt lat="46.11885" lon="2.76603">
        <ele>683.41611026294</ele>
        <time>2022-03-28T03:54:00.696Z</time>
      </trkpt>
      <trkpt lat="46.1185" lon="2.76624">
        <ele>681.34324888635</ele>
        <time>2022-03-28T03:54:03.597Z</time>
      </trkpt>
      <trkpt lat="46.11819" lon="2.76639">
        <ele>678.81829833703</ele>
        <time>2022-03-28T03:54:06.504Z</time>
      </trkpt>
      <trkpt lat="46.11773" lon="2.76652">
        <ele>675.84964510115</ele>
        <time>2022-03-28T03:54:09.421Z</time>
      </trkpt>
      <trkpt lat="46.11701" lon="2.76693">
        <ele>672.44173648574</ele>
        <time>2022-03-28T03:54:12.353Z</time>
      </trkpt>
      <trkpt lat="46.11682" lon="2.76712">
        <ele>669.32935662834</ele>
        <time>2022-03-28T03:54:15.290Z</time>
      </trkpt>
      <trkpt lat="46.11665" lon="2.76749">
        <ele>666.26398003268</ele>
        <time>2022-03-28T03:54:18.233Z</time>
      </trkpt>
      <trkpt lat="46.11663" lon="2.76823">
        <ele>663.35843578803</ele>
        <time>2022-03-28T03:54:21.187Z</time>
      </trkpt>
      <trkpt lat="46.11655" lon="2.76872">
        <ele>660.63789059432</ele>
        <time>2022-03-28T03:54:24.147Z</time>
      </trkpt>
      <trkpt lat="46.11628" lon="2.7695">
        <ele>658.17587770389</ele>
        <time>2022-03-28T03:54:27.120Z</time>
      </trkpt>
      <trkpt lat="46.11612" lon="2.76989">
        <ele>656.00343628884</ele>
        <time>2022-03-28T03:54:30.099Z</time>
      </trkpt>
      <trkpt lat="46.11598" lon="2.77028">
        <ele>654.28165102804</ele>
        <time>2022-03-28T03:54:33.084Z</time>
      </trkpt>
      <trkpt lat="46.11593" lon="2.7705">
        <ele>652.81627815484</ele>
        <time>2022-03-28T03:54:36.072Z</time>
      </trkpt>
      <trkpt lat="46.11579" lon="2.77066">
        <ele>651.67420285801</ele>
        <time>2022-03-28T03:54:39.064Z</time>
      </trkpt>
      <trkpt lat="46.1156" lon="2.77076">
        <ele>650.77863535022</ele>
        <time>2022-03-28T03:54:42.060Z</time>
      </trkpt>
      <trkpt lat="46.11538" lon="2.77078">
        <ele>650.27884437633</ele>
        <time>2022-03-28T03:54:45.060Z</time>
      </trkpt>
      <trkpt lat="46.11525" lon="2.77082">
        <ele>650.18319526706</ele>
        <time>2022-03-28T03:54:48.063Z</time>
      </trkpt>
      <trkpt lat="46.11525" lon="2.77082">
        <ele>650.4349387908</ele>
        <time>2022-03-28T03:54:51.066Z</time>
      </trkpt>
      <trkpt lat="46.11517" lon="2.77093">
        <ele>651.09319813154</ele>
        <time>2022-03-28T03:54:54.071Z</time>
      </trkpt>
      <trkpt lat="46.11509" lon="2.77127">
        <ele>652.2044875825</ele>
        <time>2022-03-28T03:54:57.081Z</time>
      </trkpt>
      <trkpt lat="46.11508" lon="2.77151">
        <ele>653.61161870089</ele>
        <time>2022-03-28T03:55:00.094Z</time>
      </trkpt>
      <trkpt lat="46.11498" lon="2.7717">
        <ele>655.34804198365</ele>
        <time>2022-03-28T03:55:03.111Z</time>
      </trkpt>
      <trkpt lat="46.11482" lon="2.77203">
        <ele>657.44145285499</ele>
        <time>2022-03-28T03:55:06.133Z</time>
      </trkpt>
      <trkpt lat="46.11479" lon="2.77214">
        <ele>659.71481930704</ele>
        <time>2022-03-28T03:55:09.157Z</time>
      </trkpt>
      <trkpt lat="46.11476" lon="2.77219">
        <ele>662.28102436418</ele>
        <time>2022-03-28T03:55:12.182Z</time>
      </trkpt>
      <trkpt lat="46.11464" lon="2.77231">
        <ele>665.18917200567</ele>
        <time>2022-03-28T03:55:15.210Z</time>
      </trkpt>
      <trkpt lat="46.11451" lon="2.7724">
        <ele>668.38425700807</ele>
        <time>2022-03-28T03:55:18.241Z</time>
      </trkpt>
      <trkpt lat="46.11425" lon="2.77249">
        <ele>671.95839667817</ele>
        <time>2022-03-28T03:55:21.277Z</time>
      </trkpt>
      <trkpt lat="46.11375" lon="2.77263">
        <ele>676.16127661934</ele>
        <time>2022-03-28T03:55:24.323Z</time>
      </trkpt>
      <trkpt lat="46.11342" lon="2.77287">
        <ele>680.58993792655</ele>
        <time>2022-03-28T03:55:27.377Z</time>
      </trkpt>
      <trkpt lat="46.11328" lon="2.773">
        <ele>685.2793159642</ele>
        <time>2022-03-28T03:55:30.434Z</time>
      </trkpt>
      <trkpt lat="46.11303" lon="2.77317">
        <ele>690.38720432232</ele>
        <time>2022-03-28T03:55:33.497Z</time>
      </trkpt>
      <trkpt lat="46.11273" lon="2.77319">
        <ele>695.43627483998</ele>
        <time>2022-03-28T03:55:36.566Z</time>
      </trkpt>
      <trkpt lat="46.11244" lon="2.77325">
        <ele>700.6820124136</ele>
        <time>2022-03-28T03:55:39.640Z</time>
      </trkpt>
      <trkpt lat="46.11144" lon="2.77332">
        <ele>706.42188262925</ele>
        <time>2022-03-28T03:55:42.734Z</time>
      </trkpt>
      <trkpt lat="46.1111" lon="2.77351">
        <ele>711.99832564156</ele>
        <time>2022-03-28T03:55:45.836Z</time>
      </trkpt>
      <trkpt lat="46.11063" lon="2.77384">
        <ele>717.54659705008</ele>
        <time>2022-03-28T03:55:48.948Z</time>
      </trkpt>
      <trkpt lat="46.11049" lon="2.77405">
        <ele>723.02448543852</ele>
        <time>2022-03-28T03:55:52.064Z</time>
      </trkpt>
      <trkpt lat="46.11038" lon="2.77451">
        <ele>728.5622207119</ele>
        <time>2022-03-28T03:55:55.187Z</time>
      </trkpt>
      <trkpt lat="46.11018" lon="2.77503">
        <ele>733.79103130243</ele>
        <time>2022-03-28T03:55:58.318Z</time>
      </trkpt>
      <trkpt lat="46.10984" lon="2.77576">
        <ele>738.68257507701</ele>
        <time>2022-03-28T03:56:01.462Z</time>
      </trkpt>
      <trkpt lat="46.10961" lon="2.77647">
        <ele>743.44203595039</ele>
        <time>2022-03-28T03:56:04.617Z</time>
      </trkpt>
      <trkpt lat="46.10946" lon="2.77711">
        <ele>747.71921783386</ele>
        <time>2022-03-28T03:56:07.781Z</time>
      </trkpt>
      <trkpt lat="46.10936" lon="2.77782">
        <ele>751.47316961794</ele>
        <time>2022-03-28T03:56:10.955Z</time>
      </trkpt>
      <trkpt lat="46.1099" lon="2.77816">
        <ele>754.95137795869</ele>
        <time>2022-03-28T03:56:14.141Z</time>
      </trkpt>
      <trkpt lat="46.1099" lon="2.77816">
        <ele>757.94669881832</ele>
        <time>2022-03-28T03:56:17.327Z</time>
      </trkpt>
      <trkpt lat="46.10995" lon="2.77819">
        <ele>760.56178787391</ele>
        <time>2022-03-28T03:56:20.514Z</time>
      </trkpt>
      <trkpt lat="46.11096" lon="2.7785">
        <ele>763.1453355043</ele>
        <time>2022-03-28T03:56:23.722Z</time>
      </trkpt>
      <trkpt lat="46.11178" lon="2.77853">
        <ele>765.04140384041</ele>
        <time>2022-03-28T03:56:26.946Z</time>
      </trkpt>
      <trkpt lat="46.11243" lon="2.77853">
        <ele>766.35497693241</ele>
        <time>2022-03-28T03:56:30.183Z</time>
      </trkpt>
      <trkpt lat="46.113" lon="2.77847">
        <ele>767.13916190312</ele>
        <time>2022-03-28T03:56:33.431Z</time>
      </trkpt>
      <trkpt lat="46.11325" lon="2.77855">
        <ele>767.6102785768</ele>
        <time>2022-03-28T03:56:36.684Z</time>
      </trkpt>
      <trkpt lat="46.11369" lon="2.77888">
        <ele>767.65068238391</ele>
        <time>2022-03-28T03:56:39.947Z</time>
      </trkpt>
      <trkpt lat="46.11463" lon="2.77978">
        <ele>767.43137071684</ele>
        <time>2022-03-28T03:56:43.233Z</time>
      </trkpt>
      <trkpt lat="46.11467" lon="2.7798">
        <ele>766.64087395076</ele>
        <time>2022-03-28T03:56:46.520Z</time>
      </trkpt>
      <trkpt lat="46.11467" lon="2.7798">
        <ele>765.42406019334</ele>
        <time>2022-03-28T03:56:49.807Z</time>
      </trkpt>
      <trkpt lat="46.11468" lon="2.77981">
        <ele>761.68892461648</ele>
        <time>2022-03-28T03:56:53.094Z</time>
      </trkpt>
      <trkpt lat="46.11661" lon="2.78102">
        <ele>759.02681850149</ele>
        <time>2022-03-28T03:56:56.423Z</time>
      </trkpt>
      <trkpt lat="46.11699" lon="2.78124">
        <ele>755.96997359018</ele>
        <time>2022-03-28T03:56:59.760Z</time>
      </trkpt>
      <trkpt lat="46.11728" lon="2.78125">
        <ele>752.6412321021</ele>
        <time>2022-03-28T03:57:03.103Z</time>
      </trkpt>
      <trkpt lat="46.11764" lon="2.78104">
        <ele>749.05103135027</ele>
        <time>2022-03-28T03:57:06.454Z</time>
      </trkpt>
      <trkpt lat="46.11804" lon="2.78093">
        <ele>745.07227881584</ele>
        <time>2022-03-28T03:57:09.813Z</time>
      </trkpt>
      <trkpt lat="46.11862" lon="2.7807">
        <ele>740.6864945244</ele>
        <time>2022-03-28T03:57:13.184Z</time>
      </trkpt>
      <trkpt lat="46.11906" lon="2.7807">
        <ele>736.29966360292</ele>
        <time>2022-03-28T03:57:16.564Z</time>
      </trkpt>
      <trkpt lat="46.11943" lon="2.78059">
        <ele>731.71860893433</ele>
        <time>2022-03-28T03:57:19.951Z</time>
      </trkpt>
      <trkpt lat="46.11999" lon="2.78055">
        <ele>727.10750088009</ele>
        <time>2022-03-28T03:57:23.350Z</time>
      </trkpt>
      <trkpt lat="46.12067" lon="2.78053">
        <ele>722.70914507366</ele>
        <time>2022-03-28T03:57:26.762Z</time>
      </trkpt>
      <trkpt lat="46.12099" lon="2.7806">
        <ele>718.52258500604</ele>
        <time>2022-03-28T03:57:30.181Z</time>
      </trkpt>
      <trkpt lat="46.12141" lon="2.78074">
        <ele>714.61464884679</ele>
        <time>2022-03-28T03:57:33.608Z</time>
      </trkpt>
      <trkpt lat="46.12185" lon="2.7807">
        <ele>710.9189170792</ele>
        <time>2022-03-28T03:57:37.044Z</time>
      </trkpt>
      <trkpt lat="46.12189" lon="2.78046">
        <ele>707.85491980432</ele>
        <time>2022-03-28T03:57:40.484Z</time>
      </trkpt>
      <trkpt lat="46.12193" lon="2.7802">
        <ele>705.22035246267</ele>
        <time>2022-03-28T03:57:43.927Z</time>
      </trkpt>
      <trkpt lat="46.12201" lon="2.77964">
        <ele>702.95337377603</ele>
        <time>2022-03-28T03:57:47.378Z</time>
      </trkpt>
      <trkpt lat="46.12202" lon="2.77923">
        <ele>701.03301056365</ele>
        <time>2022-03-28T03:57:50.835Z</time>
      </trkpt>
      <trkpt lat="46.12195" lon="2.77816">
        <ele>699.47638789503</ele>
        <time>2022-03-28T03:57:54.307Z</time>
      </trkpt>
      <trkpt lat="46.12202" lon="2.77752">
        <ele>698.08808405776</ele>
        <time>2022-03-28T03:57:57.788Z</time>
      </trkpt>
      <trkpt lat="46.12202" lon="2.77752">
        <ele>696.83650791334</ele>
        <time>2022-03-28T03:58:01.269Z</time>
      </trkpt>
      <trkpt lat="46.12204" lon="2.77721">
        <ele>695.61962044784</ele>
        <time>2022-03-28T03:58:04.754Z</time>
      </trkpt>
      <trkpt lat="46.12204" lon="2.77646">
        <ele>694.27678623797</ele>
        <time>2022-03-28T03:58:08.250Z</time>
      </trkpt>
      <trkpt lat="46.12195" lon="2.77586">
        <ele>693.15572481694</ele>
        <time>2022-03-28T03:58:11.754Z</time>
      </trkpt>
      <trkpt lat="46.12173" lon="2.77495">
        <ele>691.93441079723</ele>
        <time>2022-03-28T03:58:15.272Z</time>
      </trkpt>
      <trkpt lat="46.12159" lon="2.77368">
        <ele>690.67885293319</ele>
        <time>2022-03-28T03:58:18.808Z</time>
      </trkpt>
      <trkpt lat="46.12157" lon="2.77291">
        <ele>689.41665087003</ele>
        <time>2022-03-28T03:58:22.354Z</time>
      </trkpt>
      <trkpt lat="46.12158" lon="2.7721">
        <ele>687.86768613075</ele>
        <time>2022-03-28T03:58:25.912Z</time>
      </trkpt>
      <trkpt lat="46.12176" lon="2.77055">
        <ele>686.0036140419</ele>
        <time>2022-03-28T03:58:29.491Z</time>
      </trkpt>
      <trkpt lat="46.12179" lon="2.76991">
        <ele>684.0002208368</ele>
        <time>2022-03-28T03:58:33.079Z</time>
      </trkpt>
      <trkpt lat="46.12177" lon="2.76833">
        <ele>681.91056916253</ele>
        <time>2022-03-28T03:58:36.689Z</time>
      </trkpt>
      <trkpt lat="46.12174" lon="2.76772">
        <ele>679.89619515161</ele>
        <time>2022-03-28T03:58:40.308Z</time>
      </trkpt>
      <trkpt lat="46.1218" lon="2.76735">
        <ele>677.99396084534</ele>
        <time>2022-03-28T03:58:43.932Z</time>
      </trkpt>
      <trkpt lat="46.12195" lon="2.76681">
        <ele>676.12541191421</ele>
        <time>2022-03-28T03:58:47.564Z</time>
      </trkpt>
      <trkpt lat="46.12205" lon="2.76618">
        <ele>674.26711038387</ele>
        <time>2022-03-28T03:58:51.205Z</time>
      </trkpt>
      <trkpt lat="46.12218" lon="2.76594">
        <ele>672.47339591664</ele>
        <time>2022-03-28T03:58:54.850Z</time>
      </trkpt>
      <trkpt lat="46.12232" lon="2.76588">
        <ele>670.75924533507</ele>
        <time>2022-03-28T03:58:58.498Z</time>
      </trkpt>
      <trkpt lat="46.12277" lon="2.76592">
        <ele>669.03612750517</ele>
        <time>2022-03-28T03:59:02.155Z</time>
      </trkpt>
      <trkpt lat="46.1229" lon="2.76578">
        <ele>667.48834916649</ele>
        <time>2022-03-28T03:59:05.816Z</time>
      </trkpt>
      <trkpt lat="46.12305" lon="2.76541">
        <ele>666.04265352265</ele>
        <time>2022-03-28T03:59:09.483Z</time>
      </trkpt>
      <trkpt lat="46.12307" lon="2.76505">
        <ele>664.86395519771</ele>
        <time>2022-03-28T03:59:13.155Z</time>
      </trkpt>
      <trkpt lat="46.12327" lon="2.76416">
        <ele>663.64721725951</ele>
        <time>2022-03-28T03:59:16.840Z</time>
      </trkpt>
      <trkpt lat="46.12322" lon="2.76412">
        <ele>662.68331001365</ele>
        <time>2022-03-28T03:59:20.526Z</time>
      </trkpt>
      <trkpt lat="46.12327" lon="2.76396">
        <ele>661.81697643638</ele>
        <time>2022-03-28T03:59:24.214Z</time>
      </trkpt>
      <trkpt lat="46.12336" lon="2.76383">
        <ele>660.97155125155</ele>
        <time>2022-03-28T03:59:27.905Z</time>
      </trkpt>
      <trkpt lat="46.12347" lon="2.76367">
        <ele>660.20341894305</ele>
        <time>2022-03-28T03:59:31.599Z</time>
      </trkpt>
      <trkpt lat="46.12357" lon="2.76342">
        <ele>659.39870237285</ele>
        <time>2022-03-28T03:59:35.297Z</time>
      </trkpt>
      <trkpt lat="46.12355" lon="2.7633">
        <ele>658.59459399829</ele>
        <time>2022-03-28T03:59:38.996Z</time>
      </trkpt>
      <trkpt lat="46.12343" lon="2.7628">
        <ele>657.60961757258</ele>
        <time>2022-03-28T03:59:42.703Z</time>
      </trkpt>
      <trkpt lat="46.12341" lon="2.76273">
        <ele>656.74298602791</ele>
        <time>2022-03-28T03:59:46.411Z</time>
      </trkpt>
      <trkpt lat="46.12337" lon="2.76257">
        <ele>655.79646966541</ele>
        <time>2022-03-28T03:59:50.121Z</time>
      </trkpt>
      <trkpt lat="46.12332" lon="2.76254">
        <ele>654.7794577953</ele>
        <time>2022-03-28T03:59:53.832Z</time>
      </trkpt>
      <trkpt lat="46.12332" lon="2.76231">
        <ele>653.60376532271</ele>
        <time>2022-03-28T03:59:57.546Z</time>
      </trkpt>
      <trkpt lat="46.1233" lon="2.76222">
        <ele>652.31979198337</ele>
        <time>2022-03-28T04:00:01.262Z</time>
      </trkpt>
      <trkpt lat="46.12324" lon="2.76214">
        <ele>650.89322752865</ele>
        <time>2022-03-28T04:00:04.979Z</time>
      </trkpt>
      <trkpt lat="46.12309" lon="2.76205">
        <ele>647.83141663516</ele>
        <time>2022-03-28T04:00:08.700Z</time>
      </trkpt>
      <trkpt lat="46.12319" lon="2.76165">
        <ele>645.94729461738</ele>
        <time>2022-03-28T04:00:12.427Z</time>
      </trkpt>
      <trkpt lat="46.12334" lon="2.76075">
        <ele>643.8251263039</ele>
        <time>2022-03-28T04:00:16.166Z</time>
      </trkpt>
      <trkpt lat="46.12342" lon="2.76055">
        <ele>641.88013752816</ele>
        <time>2022-03-28T04:00:19.909Z</time>
      </trkpt>
      <trkpt lat="46.12357" lon="2.76027">
        <ele>639.91127211042</ele>
        <time>2022-03-28T04:00:23.656Z</time>
      </trkpt>
      <trkpt lat="46.12366" lon="2.76003">
        <ele>637.9663030374</ele>
        <time>2022-03-28T04:00:27.407Z</time>
      </trkpt>
      <trkpt lat="46.12368" lon="2.75985">
        <ele>636.10092868973</ele>
        <time>2022-03-28T04:00:31.161Z</time>
      </trkpt>
      <trkpt lat="46.1237" lon="2.75956">
        <ele>634.27465948924</ele>
        <time>2022-03-28T04:00:34.919Z</time>
      </trkpt>
      <trkpt lat="46.12372" lon="2.75937">
        <ele>632.5331452039</ele>
        <time>2022-03-28T04:00:38.680Z</time>
      </trkpt>
      <trkpt lat="46.12377" lon="2.75922">
        <ele>630.91272353987</ele>
        <time>2022-03-28T04:00:42.443Z</time>
      </trkpt>
      <trkpt lat="46.12386" lon="2.7591">
        <ele>629.35135260355</ele>
        <time>2022-03-28T04:00:46.208Z</time>
      </trkpt>
      <trkpt lat="46.12396" lon="2.75905">
        <ele>627.37531382528</ele>
        <time>2022-03-28T04:00:49.976Z</time>
      </trkpt>
      <trkpt lat="46.12408" lon="2.75903">
        <ele>625.94875119959</ele>
        <time>2022-03-28T04:00:53.746Z</time>
      </trkpt>
      <trkpt lat="46.12433" lon="2.75903">
        <ele>624.7189058814</ele>
        <time>2022-03-28T04:00:57.521Z</time>
      </trkpt>
      <trkpt lat="46.12459" lon="2.75895">
        <ele>623.64703408665</ele>
        <time>2022-03-28T04:01:01.301Z</time>
      </trkpt>
      <trkpt lat="46.12463" lon="2.75894">
        <ele>622.89178915611</ele>
        <time>2022-03-28T04:01:05.082Z</time>
      </trkpt>
      <trkpt lat="46.12478" lon="2.75881">
        <ele>622.35956559188</ele>
        <time>2022-03-28T04:01:08.867Z</time>
      </trkpt>
      <trkpt lat="46.12492" lon="2.7586">
        <ele>622.05480138819</ele>
        <time>2022-03-28T04:01:12.656Z</time>
      </trkpt>
      <trkpt lat="46.12494" lon="2.75858">
        <ele>622.25654982717</ele>
        <time>2022-03-28T04:01:16.445Z</time>
      </trkpt>
      <trkpt lat="46.12494" lon="2.75858">
        <ele>622.6908846916</ele>
        <time>2022-03-28T04:01:20.234Z</time>
      </trkpt>
      <trkpt lat="46.12496" lon="2.75855">
        <ele>623.34419095589</ele>
        <time>2022-03-28T04:01:24.024Z</time>
      </trkpt>
      <trkpt lat="46.12505" lon="2.75838">
        <ele>624.23930127645</ele>
        <time>2022-03-28T04:01:27.817Z</time>
      </trkpt>
      <trkpt lat="46.12516" lon="2.75814">
        <ele>625.28519357153</ele>
        <time>2022-03-28T04:01:31.614Z</time>
      </trkpt>
      <trkpt lat="46.12531" lon="2.75785">
        <ele>626.42987512807</ele>
        <time>2022-03-28T04:01:35.416Z</time>
      </trkpt>
      <trkpt lat="46.12546" lon="2.75763">
        <ele>627.617252753</ele>
        <time>2022-03-28T04:01:39.222Z</time>
      </trkpt>
      <trkpt lat="46.12601" lon="2.75696">
        <ele>628.91412559353</ele>
        <time>2022-03-28T04:01:43.042Z</time>
      </trkpt>
      <trkpt lat="46.12612" lon="2.75679">
        <ele>630.1711097557</ele>
        <time>2022-03-28T04:01:46.866Z</time>
      </trkpt>
      <trkpt lat="46.12624" lon="2.75652">
        <ele>631.36307384149</ele>
        <time>2022-03-28T04:01:50.694Z</time>
      </trkpt>
      <trkpt lat="46.12635" lon="2.75633">
        <ele>632.4542296469</ele>
        <time>2022-03-28T04:01:54.526Z</time>
      </trkpt>
      <trkpt lat="46.12675" lon="2.75595">
        <ele>633.75792040502</ele>
        <time>2022-03-28T04:01:58.367Z</time>
      </trkpt>
      <trkpt lat="46.12739" lon="2.75528">
        <ele>635.20105506092</ele>
        <time>2022-03-28T04:02:02.224Z</time>
      </trkpt>
      <trkpt lat="46.12798" lon="2.75489">
        <ele>635.88200510382</ele>
        <time>2022-03-28T04:02:06.094Z</time>
      </trkpt>
      <trkpt lat="46.12825" lon="2.75476">
        <ele>636.87173534478</ele>
        <time>2022-03-28T04:02:09.970Z</time>
      </trkpt>
      <trkpt lat="46.12865" lon="2.75462">
        <ele>637.73629701506</ele>
        <time>2022-03-28T04:02:13.854Z</time>
      </trkpt>
      <trkpt lat="46.12878" lon="2.75461">
        <ele>638.57505730641</ele>
        <time>2022-03-28T04:02:17.741Z</time>
      </trkpt>
      <trkpt lat="46.12885" lon="2.7546">
        <ele>639.42324587271</ele>
        <time>2022-03-28T04:02:21.629Z</time>
      </trkpt>
      <trkpt lat="46.12903" lon="2.75469">
        <ele>640.39397905981</ele>
        <time>2022-03-28T04:02:25.521Z</time>
      </trkpt>
      <trkpt lat="46.12908" lon="2.75473">
        <ele>641.34754439105</ele>
        <time>2022-03-28T04:02:29.414Z</time>
      </trkpt>
      <trkpt lat="46.12899" lon="2.75477">
        <ele>642.33369867617</ele>
        <time>2022-03-28T04:02:33.309Z</time>
      </trkpt>
      <trkpt lat="46.12906" lon="2.75484">
        <ele>643.4664612981</ele>
        <time>2022-03-28T04:02:37.205Z</time>
      </trkpt>
      <trkpt lat="46.12907" lon="2.75485">
        <ele>644.66847347496</ele>
        <time>2022-03-28T04:02:41.102Z</time>
      </trkpt>
      <trkpt lat="46.12911" lon="2.7549">
        <ele>646.02013323858</ele>
        <time>2022-03-28T04:02:45.000Z</time>
      </trkpt>
      <trkpt lat="46.12916" lon="2.75501">
        <ele>647.54197060555</ele>
        <time>2022-03-28T04:02:48.900Z</time>
      </trkpt>
      <trkpt lat="46.12927" lon="2.75601">
        <ele>649.61726784369</ele>
        <time>2022-03-28T04:02:52.814Z</time>
      </trkpt>
      <trkpt lat="46.12928" lon="2.75627">
        <ele>651.44487790928</ele>
        <time>2022-03-28T04:02:56.731Z</time>
      </trkpt>
      <trkpt lat="46.12931" lon="2.75627">
        <ele>653.26672044081</ele>
        <time>2022-03-28T04:03:00.649Z</time>
      </trkpt>
      <trkpt lat="46.12966" lon="2.75632">
        <ele>655.01627941026</ele>
        <time>2022-03-28T04:03:04.574Z</time>
      </trkpt>
      <trkpt lat="46.13027" lon="2.75694">
        <ele>657.32541516585</ele>
        <time>2022-03-28T04:03:08.514Z</time>
      </trkpt>
      <trkpt lat="46.13037" lon="2.75701">
        <ele>659.5986461348</ele>
        <time>2022-03-28T04:03:12.456Z</time>
      </trkpt>
      <trkpt lat="46.13044" lon="2.75702">
        <ele>661.92896343867</ele>
        <time>2022-03-28T04:03:16.400Z</time>
      </trkpt>
      <trkpt lat="46.13054" lon="2.75693">
        <ele>664.40500288664</ele>
        <time>2022-03-28T04:03:20.346Z</time>
      </trkpt>
      <trkpt lat="46.13058" lon="2.75686">
        <ele>666.88575771369</ele>
        <time>2022-03-28T04:03:24.293Z</time>
      </trkpt>
      <trkpt lat="46.13079" lon="2.75625">
        <ele>669.68459519227</ele>
        <time>2022-03-28T04:03:28.250Z</time>
      </trkpt>
      <trkpt lat="46.13092" lon="2.75607">
        <ele>672.26854804909</ele>
        <time>2022-03-28T04:03:32.210Z</time>
      </trkpt>
      <trkpt lat="46.13098" lon="2.75603">
        <ele>674.76617560958</ele>
        <time>2022-03-28T04:03:36.172Z</time>
      </trkpt>
      <trkpt lat="46.13107" lon="2.75602">
        <ele>677.21454365584</ele>
        <time>2022-03-28T04:03:40.135Z</time>
      </trkpt>
      <trkpt lat="46.13111" lon="2.75607">
        <ele>679.53010937409</ele>
        <time>2022-03-28T04:03:44.099Z</time>
      </trkpt>
      <trkpt lat="46.13129" lon="2.75664">
        <ele>681.74379162013</ele>
        <time>2022-03-28T04:03:48.072Z</time>
      </trkpt>
      <trkpt lat="46.13136" lon="2.7568">
        <ele>683.80974031657</ele>
        <time>2022-03-28T04:03:52.048Z</time>
      </trkpt>
      <trkpt lat="46.1316" lon="2.75728">
        <ele>685.74393168977</ele>
        <time>2022-03-28T04:03:56.032Z</time>
      </trkpt>
      <trkpt lat="46.13175" lon="2.75739">
        <ele>687.50343359561</ele>
        <time>2022-03-28T04:04:00.019Z</time>
      </trkpt>
      <trkpt lat="46.13195" lon="2.75743">
        <ele>689.05654684327</ele>
        <time>2022-03-28T04:04:04.010Z</time>
      </trkpt>
      <trkpt lat="46.13204" lon="2.75744">
        <ele>690.31309161141</ele>
        <time>2022-03-28T04:04:08.003Z</time>
      </trkpt>
      <trkpt lat="46.13214" lon="2.75744">
        <ele>691.27228341514</ele>
        <time>2022-03-28T04:04:11.998Z</time>
      </trkpt>
      <trkpt lat="46.1322" lon="2.75848">
        <ele>691.87005704334</ele>
        <time>2022-03-28T04:04:16.008Z</time>
      </trkpt>
      <trkpt lat="46.13218" lon="2.75922">
        <ele>692.25060899908</ele>
        <time>2022-03-28T04:04:20.028Z</time>
      </trkpt>
      <trkpt lat="46.13211" lon="2.7599">
        <ele>692.06196506917</ele>
        <time>2022-03-28T04:04:24.058Z</time>
      </trkpt>
      <trkpt lat="46.13211" lon="2.75992">
        <ele>691.19227092185</ele>
        <time>2022-03-28T04:04:28.088Z</time>
      </trkpt>
      <trkpt lat="46.13217" lon="2.7599">
        <ele>689.77588182352</ele>
        <time>2022-03-28T04:04:32.119Z</time>
      </trkpt>
      <trkpt lat="46.13227" lon="2.75983">
        <ele>687.8320460612</ele>
        <time>2022-03-28T04:04:36.152Z</time>
      </trkpt>
      <trkpt lat="46.13245" lon="2.75958">
        <ele>685.3092934713</ele>
        <time>2022-03-28T04:04:40.190Z</time>
      </trkpt>
      <trkpt lat="46.13346" lon="2.75799">
        <ele>681.85220315177</ele>
        <time>2022-03-28T04:04:44.258Z</time>
      </trkpt>
      <trkpt lat="46.13404" lon="2.75689">
        <ele>678.1572812333</ele>
        <time>2022-03-28T04:04:48.345Z</time>
      </trkpt>
      <trkpt lat="46.13444" lon="2.75634">
        <ele>674.61452905532</ele>
        <time>2022-03-28T04:04:52.444Z</time>
      </trkpt>
      <trkpt lat="46.13499" lon="2.75611">
        <ele>670.68524148751</ele>
        <time>2022-03-28T04:04:56.554Z</time>
      </trkpt>
      <trkpt lat="46.13598" lon="2.75564">
        <ele>666.33573030901</ele>
        <time>2022-03-28T04:05:00.685Z</time>
      </trkpt>
      <trkpt lat="46.13631" lon="2.75548">
        <ele>662.50881201205</ele>
        <time>2022-03-28T04:05:04.823Z</time>
      </trkpt>
      <trkpt lat="46.13633" lon="2.75547">
        <ele>658.94347721559</ele>
        <time>2022-03-28T04:05:08.961Z</time>
      </trkpt>
      <trkpt lat="46.13638" lon="2.75545">
        <ele>655.56768245965</ele>
        <time>2022-03-28T04:05:13.100Z</time>
      </trkpt>
      <trkpt lat="46.13651" lon="2.75531">
        <ele>652.36093871173</ele>
        <time>2022-03-28T04:05:17.243Z</time>
      </trkpt>
      <trkpt lat="46.13655" lon="2.75516">
        <ele>649.47272734063</ele>
        <time>2022-03-28T04:05:21.388Z</time>
      </trkpt>
      <trkpt lat="46.13655" lon="2.75513">
        <ele>646.93404692839</ele>
        <time>2022-03-28T04:05:25.533Z</time>
      </trkpt>
      <trkpt lat="46.13657" lon="2.75491">
        <ele>644.60739405056</ele>
        <time>2022-03-28T04:05:29.681Z</time>
      </trkpt>
      <trkpt lat="46.13653" lon="2.75468">
        <ele>642.56084672357</ele>
        <time>2022-03-28T04:05:33.833Z</time>
      </trkpt>
      <trkpt lat="46.1365" lon="2.75457">
        <ele>640.80550307693</ele>
        <time>2022-03-28T04:05:37.986Z</time>
      </trkpt>
      <trkpt lat="46.13647" lon="2.75446">
        <ele>639.2880417997</ele>
        <time>2022-03-28T04:05:42.141Z</time>
      </trkpt>
      <trkpt lat="46.13633" lon="2.75417">
        <ele>637.95164281728</ele>
        <time>2022-03-28T04:05:46.301Z</time>
      </trkpt>
      <trkpt lat="46.13627" lon="2.75408">
        <ele>636.80823296214</ele>
        <time>2022-03-28T04:05:50.463Z</time>
      </trkpt>
      <trkpt lat="46.13592" lon="2.75398">
        <ele>635.76785305996</ele>
        <time>2022-03-28T04:05:54.632Z</time>
      </trkpt>
      <trkpt lat="46.13595" lon="2.75396">
        <ele>634.83701320401</ele>
        <time>2022-03-28T04:05:58.801Z</time>
      </trkpt>
      <trkpt lat="46.136" lon="2.75393">
        <ele>633.94869203347</ele>
        <time>2022-03-28T04:06:02.971Z</time>
      </trkpt>
      <trkpt lat="46.13642" lon="2.75361">
        <ele>632.98628897935</ele>
        <time>2022-03-28T04:06:07.151Z</time>
      </trkpt>
      <trkpt lat="46.13649" lon="2.75356">
        <ele>632.09788763185</ele>
        <time>2022-03-28T04:06:11.332Z</time>
      </trkpt>
      <trkpt lat="46.13677" lon="2.7533">
        <ele>631.13405152587</ele>
        <time>2022-03-28T04:06:15.520Z</time>
      </trkpt>
      <trkpt lat="46.13734" lon="2.7522">
        <ele>630.0053800219</ele>
        <time>2022-03-28T04:06:19.727Z</time>
      </trkpt>
      <trkpt lat="46.13766" lon="2.75199">
        <ele>629.08567869355</ele>
        <time>2022-03-28T04:06:23.941Z</time>
      </trkpt>
      <trkpt lat="46.13785" lon="2.75172">
        <ele>628.00538422904</ele>
        <time>2022-03-28T04:06:28.161Z</time>
      </trkpt>
      <trkpt lat="46.13787" lon="2.75169">
        <ele>626.99697103334</ele>
        <time>2022-03-28T04:06:32.381Z</time>
      </trkpt>
      <trkpt lat="46.13793" lon="2.75162">
        <ele>625.94362858283</ele>
        <time>2022-03-28T04:06:36.603Z</time>
      </trkpt>
      <trkpt lat="46.13799" lon="2.75153">
        <ele>624.86453707273</ele>
        <time>2022-03-28T04:06:40.826Z</time>
      </trkpt>
      <trkpt lat="46.13809" lon="2.75143">
        <ele>623.75172053055</ele>
        <time>2022-03-28T04:06:45.052Z</time>
      </trkpt>
      <trkpt lat="46.13827" lon="2.75132">
        <ele>622.62924781784</ele>
        <time>2022-03-28T04:06:49.282Z</time>
      </trkpt>
      <trkpt lat="46.13875" lon="2.75111">
        <ele>621.49924505278</ele>
        <time>2022-03-28T04:06:53.522Z</time>
      </trkpt>
      <trkpt lat="46.13884" lon="2.75103">
        <ele>620.45461953197</ele>
        <time>2022-03-28T04:06:57.764Z</time>
      </trkpt>
      <trkpt lat="46.13915" lon="2.7507">
        <ele>619.39924849193</ele>
        <time>2022-03-28T04:07:02.014Z</time>
      </trkpt>
      <trkpt lat="46.13928" lon="2.75049">
        <ele>618.24557320399</ele>
        <time>2022-03-28T04:07:06.268Z</time>
      </trkpt>
      <trkpt lat="46.13935" lon="2.75033">
        <ele>617.16417129089</ele>
        <time>2022-03-28T04:07:10.524Z</time>
      </trkpt>
      <trkpt lat="46.13943" lon="2.75015">
        <ele>616.07278684298</ele>
        <time>2022-03-28T04:07:14.783Z</time>
      </trkpt>
      <trkpt lat="46.13951" lon="2.74989">
        <ele>614.99622796652</ele>
        <time>2022-03-28T04:07:19.046Z</time>
      </trkpt>
      <trkpt lat="46.13955" lon="2.74967">
        <ele>613.88973627512</ele>
        <time>2022-03-28T04:07:23.312Z</time>
      </trkpt>
      <trkpt lat="46.13955" lon="2.74901">
        <ele>612.65086683829</ele>
        <time>2022-03-28T04:07:27.587Z</time>
      </trkpt>
      <trkpt lat="46.13957" lon="2.74891">
        <ele>611.48658078784</ele>
        <time>2022-03-28T04:07:31.864Z</time>
      </trkpt>
      <trkpt lat="46.13958" lon="2.74879">
        <ele>610.30750230471</ele>
        <time>2022-03-28T04:07:36.143Z</time>
      </trkpt>
      <trkpt lat="46.13967" lon="2.74843">
        <ele>609.02351356344</ele>
        <time>2022-03-28T04:07:40.427Z</time>
      </trkpt>
      <trkpt lat="46.13972" lon="2.74833">
        <ele>607.73190971274</ele>
        <time>2022-03-28T04:07:44.713Z</time>
      </trkpt>
      <trkpt lat="46.1399" lon="2.7481">
        <ele>606.36675368026</ele>
        <time>2022-03-28T04:07:49.003Z</time>
      </trkpt>
      <trkpt lat="46.1401" lon="2.74783">
        <ele>605.00450944077</ele>
        <time>2022-03-28T04:07:53.299Z</time>
      </trkpt>
      <trkpt lat="46.14022" lon="2.74774">
        <ele>603.62520767106</ele>
        <time>2022-03-28T04:07:57.598Z</time>
      </trkpt>
      <trkpt lat="46.14036" lon="2.7477">
        <ele>602.21030600804</ele>
        <time>2022-03-28T04:08:01.900Z</time>
      </trkpt>
      <trkpt lat="46.1405" lon="2.74773">
        <ele>600.76849879997</ele>
        <time>2022-03-28T04:08:06.204Z</time>
      </trkpt>
      <trkpt lat="46.14062" lon="2.74782">
        <ele>599.25238413853</ele>
        <time>2022-03-28T04:08:10.511Z</time>
      </trkpt>
      <trkpt lat="46.14098" lon="2.74845">
        <ele>597.62420562493</ele>
        <time>2022-03-28T04:08:14.829Z</time>
      </trkpt>
      <trkpt lat="46.14106" lon="2.74856">
        <ele>596.04452645199</ele>
        <time>2022-03-28T04:08:19.150Z</time>
      </trkpt>
      <trkpt lat="46.14128" lon="2.74868">
        <ele>594.38659155578</ele>
        <time>2022-03-28T04:08:23.475Z</time>
      </trkpt>
      <trkpt lat="46.14135" lon="2.74879">
        <ele>592.78839371105</ele>
        <time>2022-03-28T04:08:27.802Z</time>
      </trkpt>
      <trkpt lat="46.14141" lon="2.74893">
        <ele>591.19942242963</ele>
        <time>2022-03-28T04:08:32.132Z</time>
      </trkpt>
      <trkpt lat="46.14152" lon="2.74937">
        <ele>589.58895976814</ele>
        <time>2022-03-28T04:08:36.468Z</time>
      </trkpt>
      <trkpt lat="46.14188" lon="2.7502">
        <ele>587.80434504381</ele>
        <time>2022-03-28T04:08:40.818Z</time>
      </trkpt>
      <trkpt lat="46.14203" lon="2.75046">
        <ele>586.20755643885</ele>
        <time>2022-03-28T04:08:45.172Z</time>
      </trkpt>
      <trkpt lat="46.14215" lon="2.75066">
        <ele>584.76892517131</ele>
        <time>2022-03-28T04:08:49.530Z</time>
      </trkpt>
      <trkpt lat="46.14221" lon="2.75075">
        <ele>583.51605349549</ele>
        <time>2022-03-28T04:08:53.890Z</time>
      </trkpt>
      <trkpt lat="46.14227" lon="2.75088">
        <ele>582.41844979575</ele>
        <time>2022-03-28T04:08:58.252Z</time>
      </trkpt>
      <trkpt lat="46.14228" lon="2.75104">
        <ele>581.49584245088</ele>
        <time>2022-03-28T04:09:02.616Z</time>
      </trkpt>
      <trkpt lat="46.14226" lon="2.7514">
        <ele>580.73571923059</ele>
        <time>2022-03-28T04:09:06.985Z</time>
      </trkpt>
      <trkpt lat="46.14221" lon="2.75167">
        <ele>580.11719846878</ele>
        <time>2022-03-28T04:09:11.358Z</time>
      </trkpt>
      <trkpt lat="46.1422" lon="2.75183">
        <ele>579.66660752867</ele>
        <time>2022-03-28T04:09:15.733Z</time>
      </trkpt>
      <trkpt lat="46.14222" lon="2.75198">
        <ele>579.34827203594</ele>
        <time>2022-03-28T04:09:20.111Z</time>
      </trkpt>
      <trkpt lat="46.14226" lon="2.75208">
        <ele>579.2804109095</ele>
        <time>2022-03-28T04:09:24.490Z</time>
      </trkpt>
      <trkpt lat="46.14238" lon="2.75228">
        <ele>579.43145585358</ele>
        <time>2022-03-28T04:09:28.873Z</time>
      </trkpt>
      <trkpt lat="46.1426" lon="2.7526">
        <ele>579.85892328621</ele>
        <time>2022-03-28T04:09:33.262Z</time>
      </trkpt>
      <trkpt lat="46.1427" lon="2.75266">
        <ele>580.4888959177</ele>
        <time>2022-03-28T04:09:37.653Z</time>
      </trkpt>
      <trkpt lat="46.1428" lon="2.75266">
        <ele>581.34619086153</ele>
        <time>2022-03-28T04:09:42.046Z</time>
      </trkpt>
      <trkpt lat="46.14291" lon="2.7526">
        <ele>582.44381784042</ele>
        <time>2022-03-28T04:09:46.442Z</time>
      </trkpt>
      <trkpt lat="46.14302" lon="2.75246">
        <ele>583.74117319636</ele>
        <time>2022-03-28T04:09:50.841Z</time>
      </trkpt>
      <trkpt lat="46.14309" lon="2.75229">
        <ele>585.21500165472</ele>
        <time>2022-03-28T04:09:55.242Z</time>
      </trkpt>
      <trkpt lat="46.14311" lon="2.7523">
        <ele>586.85973676881</ele>
        <time>2022-03-28T04:09:59.644Z</time>
      </trkpt>
      <trkpt lat="46.14317" lon="2.75236">
        <ele>588.69005244851</ele>
        <time>2022-03-28T04:10:04.047Z</time>
      </trkpt>
      <trkpt lat="46.14319" lon="2.75244">
        <ele>590.6582444178</ele>
        <time>2022-03-28T04:10:08.451Z</time>
      </trkpt>
      <trkpt lat="46.14321" lon="2.75313">
        <ele>592.74169617645</ele>
        <time>2022-03-28T04:10:12.865Z</time>
      </trkpt>
      <trkpt lat="46.14317" lon="2.75331">
        <ele>594.88682980947</ele>
        <time>2022-03-28T04:10:17.282Z</time>
      </trkpt>
      <trkpt lat="46.14308" lon="2.75362">
        <ele>597.17293165324</ele>
        <time>2022-03-28T04:10:21.703Z</time>
      </trkpt>
      <trkpt lat="46.14304" lon="2.75381">
        <ele>599.42435160021</ele>
        <time>2022-03-28T04:10:26.127Z</time>
      </trkpt>
      <trkpt lat="46.14301" lon="2.75443">
        <ele>601.70105023934</ele>
        <time>2022-03-28T04:10:30.560Z</time>
      </trkpt>
      <trkpt lat="46.14308" lon="2.75566">
        <ele>604.25571147029</ele>
        <time>2022-03-28T04:10:35.010Z</time>
      </trkpt>
      <trkpt lat="46.14309" lon="2.75579">
        <ele>605.91374628238</ele>
        <time>2022-03-28T04:10:39.462Z</time>
      </trkpt>
      <trkpt lat="46.14309" lon="2.75586">
        <ele>607.16178248042</ele>
        <time>2022-03-28T04:10:43.915Z</time>
      </trkpt>
      <trkpt lat="46.14324" lon="2.75613">
        <ele>608.12837456639</ele>
        <time>2022-03-28T04:10:48.372Z</time>
      </trkpt>
      <trkpt lat="46.14387" lon="2.7564">
        <ele>608.48002357157</ele>
        <time>2022-03-28T04:10:52.843Z</time>
      </trkpt>
      <trkpt lat="46.14403" lon="2.75649">
        <ele>608.12819167493</ele>
        <time>2022-03-28T04:10:57.317Z</time>
      </trkpt>
      <trkpt lat="46.14413" lon="2.75658">
        <ele>607.2368440042</ele>
        <time>2022-03-28T04:11:01.793Z</time>
      </trkpt>
      <trkpt lat="46.14425" lon="2.75679">
        <ele>605.79407529795</ele>
        <time>2022-03-28T04:11:06.273Z</time>
      </trkpt>
      <trkpt lat="46.14454" lon="2.75772">
        <ele>603.62318032763</ele>
        <time>2022-03-28T04:11:10.767Z</time>
      </trkpt>
      <trkpt lat="46.14485" lon="2.759">
        <ele>601.52230193593</ele>
        <time>2022-03-28T04:11:15.280Z</time>
      </trkpt>
      <trkpt lat="46.14492" lon="2.75907">
        <ele>599.24792681328</ele>
        <time>2022-03-28T04:11:19.795Z</time>
      </trkpt>
      <trkpt lat="46.14492" lon="2.75912">
        <ele>596.94319356853</ele>
        <time>2022-03-28T04:11:24.311Z</time>
      </trkpt>
      <trkpt lat="46.14492" lon="2.75907">
        <ele>599.24792681328</ele>
        <time>2022-03-28T04:11:28.827Z</time>
      </trkpt>
      <trkpt lat="46.14501" lon="2.75904">
        <ele>592.30991754187</ele>
        <time>2022-03-28T04:11:33.345Z</time>
      </trkpt>
      <trkpt lat="46.1457" lon="2.75793">
        <ele>589.60836274799</ele>
        <time>2022-03-28T04:11:37.884Z</time>
      </trkpt>
      <trkpt lat="46.14583" lon="2.75776">
        <ele>587.68786671835</ele>
        <time>2022-03-28T04:11:42.426Z</time>
      </trkpt>
      <trkpt lat="46.14603" lon="2.75759">
        <ele>586.08908255726</ele>
        <time>2022-03-28T04:11:46.973Z</time>
      </trkpt>
      <trkpt lat="46.14654" lon="2.75728">
        <ele>585.04495031996</ele>
        <time>2022-03-28T04:11:51.531Z</time>
      </trkpt>
      <trkpt lat="46.14663" lon="2.75713">
        <ele>584.24403678244</ele>
        <time>2022-03-28T04:11:56.092Z</time>
      </trkpt>
      <trkpt lat="46.14672" lon="2.75689">
        <ele>583.78479663454</ele>
        <time>2022-03-28T04:12:00.657Z</time>
      </trkpt>
      <trkpt lat="46.14675" lon="2.75665">
        <ele>583.56786554648</ele>
        <time>2022-03-28T04:12:05.225Z</time>
      </trkpt>
      <trkpt lat="46.14687" lon="2.75614">
        <ele>583.64266328451</ele>
        <time>2022-03-28T04:12:09.801Z</time>
      </trkpt>
      <trkpt lat="46.14726" lon="2.75494">
        <ele>584.04400272414</ele>
        <time>2022-03-28T04:12:14.395Z</time>
      </trkpt>
      <trkpt lat="46.14776" lon="2.75411">
        <ele>584.52681169304</ele>
        <time>2022-03-28T04:12:19.004Z</time>
      </trkpt>
      <trkpt lat="46.14818" lon="2.75353">
        <ele>585.23462045199</ele>
        <time>2022-03-28T04:12:23.625Z</time>
      </trkpt>
      <trkpt lat="46.14836" lon="2.75334">
        <ele>585.82687669107</ele>
        <time>2022-03-28T04:12:28.250Z</time>
      </trkpt>
      <trkpt lat="46.14851" lon="2.75334">
        <ele>586.39762359888</ele>
        <time>2022-03-28T04:12:32.878Z</time>
      </trkpt>
      <trkpt lat="46.14851" lon="2.75331">
        <ele>586.81305271818</ele>
        <time>2022-03-28T04:12:37.507Z</time>
      </trkpt>
      <trkpt lat="46.14851" lon="2.75323">
        <ele>587.05529516437</ele>
        <time>2022-03-28T04:12:42.137Z</time>
      </trkpt>
      <trkpt lat="46.14859" lon="2.75309">
        <ele>587.08737164609</ele>
        <time>2022-03-28T04:12:46.769Z</time>
      </trkpt>
      <trkpt lat="46.14869" lon="2.75299">
        <ele>586.89114789128</ele>
        <time>2022-03-28T04:12:51.404Z</time>
      </trkpt>
      <trkpt lat="46.14882" lon="2.75296">
        <ele>586.45910857181</ele>
        <time>2022-03-28T04:12:56.041Z</time>
      </trkpt>
      <trkpt lat="46.14902" lon="2.753">
        <ele>585.76930533605</ele>
        <time>2022-03-28T04:13:00.683Z</time>
      </trkpt>
      <trkpt lat="46.14918" lon="2.75305">
        <ele>584.72908893098</ele>
        <time>2022-03-28T04:13:05.328Z</time>
      </trkpt>
      <trkpt lat="46.14921" lon="2.75306">
        <ele>583.50405867616</ele>
        <time>2022-03-28T04:13:09.973Z</time>
      </trkpt>
      <trkpt lat="46.14951" lon="2.75326">
        <ele>581.92855287346</ele>
        <time>2022-03-28T04:13:14.625Z</time>
      </trkpt>
      <trkpt lat="46.1499" lon="2.75346">
        <ele>579.9854714785</ele>
        <time>2022-03-28T04:13:19.285Z</time>
      </trkpt>
      <trkpt lat="46.15077" lon="2.75382">
        <ele>578.17941724843</ele>
        <time>2022-03-28T04:13:23.963Z</time>
      </trkpt>
      <trkpt lat="46.15092" lon="2.75392">
        <ele>576.12096788341</ele>
        <time>2022-03-28T04:13:28.645Z</time>
      </trkpt>
      <trkpt lat="46.15102" lon="2.75402">
        <ele>573.94763114672</ele>
        <time>2022-03-28T04:13:33.329Z</time>
      </trkpt>
      <trkpt lat="46.15127" lon="2.75447">
        <ele>571.47372317132</ele>
        <time>2022-03-28T04:13:38.021Z</time>
      </trkpt>
      <trkpt lat="46.15144" lon="2.75491">
        <ele>569.08918778433</ele>
        <time>2022-03-28T04:13:42.720Z</time>
      </trkpt>
      <trkpt lat="46.15152" lon="2.75519">
        <ele>566.85734779454</ele>
        <time>2022-03-28T04:13:47.423Z</time>
      </trkpt>
      <trkpt lat="46.15171" lon="2.7563">
        <ele>564.63297278236</ele>
        <time>2022-03-28T04:13:52.142Z</time>
      </trkpt>
      <trkpt lat="46.15174" lon="2.75634">
        <ele>562.30805991077</ele>
        <time>2022-03-28T04:13:56.862Z</time>
      </trkpt>
      <trkpt lat="46.15177" lon="2.75635">
        <ele>560.02381320379</ele>
        <time>2022-03-28T04:14:01.583Z</time>
      </trkpt>
      <trkpt lat="46.15182" lon="2.75636">
        <ele>557.79995580764</ele>
        <time>2022-03-28T04:14:06.305Z</time>
      </trkpt>
      <trkpt lat="46.152" lon="2.75611">
        <ele>555.56343840759</ele>
        <time>2022-03-28T04:14:11.032Z</time>
      </trkpt>
      <trkpt lat="46.15214" lon="2.75598">
        <ele>553.61859044388</ele>
        <time>2022-03-28T04:14:15.762Z</time>
      </trkpt>
      <trkpt lat="46.15226" lon="2.75588">
        <ele>551.92759919689</ele>
        <time>2022-03-28T04:14:20.495Z</time>
      </trkpt>
      <trkpt lat="46.15247" lon="2.7558">
        <ele>550.50108455952</ele>
        <time>2022-03-28T04:14:25.232Z</time>
      </trkpt>
      <trkpt lat="46.15256" lon="2.75574">
        <ele>549.57628019095</ele>
        <time>2022-03-28T04:14:29.971Z</time>
      </trkpt>
      <trkpt lat="46.15309" lon="2.75527">
        <ele>549.02672383092</ele>
        <time>2022-03-28T04:14:34.723Z</time>
      </trkpt>
      <trkpt lat="46.15317" lon="2.75522">
        <ele>549.0814738989</ele>
        <time>2022-03-28T04:14:39.476Z</time>
      </trkpt>
      <trkpt lat="46.15351" lon="2.75515">
        <ele>549.61397527707</ele>
        <time>2022-03-28T04:14:44.236Z</time>
      </trkpt>
      <trkpt lat="46.15361" lon="2.75511">
        <ele>550.79435219421</ele>
        <time>2022-03-28T04:14:48.998Z</time>
      </trkpt>
      <trkpt lat="46.15372" lon="2.75501">
        <ele>552.55586910149</ele>
        <time>2022-03-28T04:14:53.763Z</time>
      </trkpt>
      <trkpt lat="46.1541" lon="2.75461">
        <ele>555.01256210433</ele>
        <time>2022-03-28T04:14:58.537Z</time>
      </trkpt>
      <trkpt lat="46.15422" lon="2.75452">
        <ele>557.68993673947</ele>
        <time>2022-03-28T04:15:03.314Z</time>
      </trkpt>
      <trkpt lat="46.15484" lon="2.75412">
        <ele>560.98698399498</ele>
        <time>2022-03-28T04:15:08.105Z</time>
      </trkpt>
      <trkpt lat="46.15538" lon="2.75388">
        <ele>564.43720563186</ele>
        <time>2022-03-28T04:15:12.907Z</time>
      </trkpt>
      <trkpt lat="46.15607" lon="2.75345">
        <ele>568.10451851413</ele>
        <time>2022-03-28T04:15:17.724Z</time>
      </trkpt>
      <trkpt lat="46.15611" lon="2.75349">
        <ele>571.7335707584</ele>
        <time>2022-03-28T04:15:22.542Z</time>
      </trkpt>
      <trkpt lat="46.15752" lon="2.75471">
        <ele>575.87990405106</ele>
        <time>2022-03-28T04:15:27.393Z</time>
      </trkpt>
      <trkpt lat="46.15883" lon="2.75512">
        <ele>579.60279593489</ele>
        <time>2022-03-28T04:15:32.271Z</time>
      </trkpt>
      <trkpt lat="46.15907" lon="2.75515">
        <ele>582.93834791029</ele>
        <time>2022-03-28T04:15:37.154Z</time>
      </trkpt>
      <trkpt lat="46.15916" lon="2.75534">
        <ele>585.98679249593</ele>
        <time>2022-03-28T04:15:42.040Z</time>
      </trkpt>
      <trkpt lat="46.15934" lon="2.75558">
        <ele>588.70990026802</ele>
        <time>2022-03-28T04:15:46.931Z</time>
      </trkpt>
      <trkpt lat="46.15948" lon="2.75579">
        <ele>591.02711267569</ele>
        <time>2022-03-28T04:15:51.826Z</time>
      </trkpt>
      <trkpt lat="46.15951" lon="2.75583">
        <ele>592.87242054286</ele>
        <time>2022-03-28T04:15:56.722Z</time>
      </trkpt>
      <trkpt lat="46.15957" lon="2.75565">
        <ele>594.24511034964</ele>
        <time>2022-03-28T04:16:01.620Z</time>
      </trkpt>
      <trkpt lat="46.15966" lon="2.75555">
        <ele>595.20588602945</ele>
        <time>2022-03-28T04:16:06.521Z</time>
      </trkpt>
      <trkpt lat="46.15987" lon="2.75538">
        <ele>595.75483053684</ele>
        <time>2022-03-28T04:16:11.426Z</time>
      </trkpt>
      <trkpt lat="46.15998" lon="2.75554">
        <ele>595.84113273435</ele>
        <time>2022-03-28T04:16:16.335Z</time>
      </trkpt>
      <trkpt lat="46.16013" lon="2.75574">
        <ele>595.49220004434</ele>
        <time>2022-03-28T04:16:21.248Z</time>
      </trkpt>
      <trkpt lat="46.16026" lon="2.75588">
        <ele>594.77618837931</ele>
        <time>2022-03-28T04:16:26.164Z</time>
      </trkpt>
      <trkpt lat="46.16055" lon="2.75611">
        <ele>593.72433708718</ele>
        <time>2022-03-28T04:16:31.086Z</time>
      </trkpt>
      <trkpt lat="46.161" lon="2.75599">
        <ele>592.31655934685</ele>
        <time>2022-03-28T04:16:36.018Z</time>
      </trkpt>
      <trkpt lat="46.16112" lon="2.75604">
        <ele>590.75156101693</ele>
        <time>2022-03-28T04:16:40.952Z</time>
      </trkpt>
      <trkpt lat="46.16117" lon="2.75612">
        <ele>589.00906389885</ele>
        <time>2022-03-28T04:16:45.888Z</time>
      </trkpt>
      <trkpt lat="46.16156" lon="2.75706">
        <ele>587.05459607528</ele>
        <time>2022-03-28T04:16:50.839Z</time>
      </trkpt>
      <trkpt lat="46.16172" lon="2.75738">
        <ele>585.10571192029</ele>
        <time>2022-03-28T04:16:55.795Z</time>
      </trkpt>
      <trkpt lat="46.16219" lon="2.75802">
        <ele>582.72317922323</ele>
        <time>2022-03-28T04:17:00.764Z</time>
      </trkpt>
      <trkpt lat="46.16233" lon="2.75823">
        <ele>580.56187205439</ele>
        <time>2022-03-28T04:17:05.737Z</time>
      </trkpt>
      <trkpt lat="46.16254" lon="2.75839">
        <ele>578.40983904822</ele>
        <time>2022-03-28T04:17:10.715Z</time>
      </trkpt>
      <trkpt lat="46.16269" lon="2.75846">
        <ele>576.29800537823</ele>
        <time>2022-03-28T04:17:15.696Z</time>
      </trkpt>
      <trkpt lat="46.16282" lon="2.75859">
        <ele>574.24451418719</ele>
        <time>2022-03-28T04:17:20.680Z</time>
      </trkpt>
      <trkpt lat="46.16293" lon="2.75873">
        <ele>572.27984845442</ele>
        <time>2022-03-28T04:17:25.667Z</time>
      </trkpt>
      <trkpt lat="46.16301" lon="2.75896">
        <ele>570.4036456186</ele>
        <time>2022-03-28T04:17:30.658Z</time>
      </trkpt>
      <trkpt lat="46.16306" lon="2.75888">
        <ele>568.66558569575</ele>
        <time>2022-03-28T04:17:35.650Z</time>
      </trkpt>
      <trkpt lat="46.16447" lon="2.75662">
        <ele>566.22600554783</ele>
        <time>2022-03-28T04:17:40.685Z</time>
      </trkpt>
      <trkpt lat="46.1654" lon="2.75422">
        <ele>564.9702098264</ele>
        <time>2022-03-28T04:17:45.758Z</time>
      </trkpt>
      <trkpt lat="46.16562" lon="2.75401">
        <ele>563.7308229663</ele>
        <time>2022-03-28T04:17:50.836Z</time>
      </trkpt>
      <trkpt lat="46.16702" lon="2.75317">
        <ele>562.92740868068</ele>
        <time>2022-03-28T04:17:55.944Z</time>
      </trkpt>
      <trkpt lat="46.16793" lon="2.75235">
        <ele>562.19262969436</ele>
        <time>2022-03-28T04:18:01.074Z</time>
      </trkpt>
      <trkpt lat="46.16856" lon="2.75077">
        <ele>561.28352231511</ele>
        <time>2022-03-28T04:18:06.229Z</time>
      </trkpt>
      <trkpt lat="46.16851" lon="2.75077">
        <ele>560.32180669537</ele>
        <time>2022-03-28T04:18:11.385Z</time>
      </trkpt>
      <trkpt lat="46.16856" lon="2.75077">
        <ele>561.28352231511</ele>
        <time>2022-03-28T04:18:16.542Z</time>
      </trkpt>
      <trkpt lat="46.16949" lon="2.75061">
        <ele>558.12193580656</ele>
        <time>2022-03-28T04:18:21.718Z</time>
      </trkpt>
      <trkpt lat="46.16957" lon="2.7506">
        <ele>556.73698990521</ele>
        <time>2022-03-28T04:18:26.896Z</time>
      </trkpt>
      <trkpt lat="46.16974" lon="2.75052">
        <ele>555.05941988756</ele>
        <time>2022-03-28T04:18:32.077Z</time>
      </trkpt>
      <trkpt lat="46.17025" lon="2.75025">
        <ele>553.12751407872</ele>
        <time>2022-03-28T04:18:37.269Z</time>
      </trkpt>
      <trkpt lat="46.17042" lon="2.75019">
        <ele>551.16764315147</ele>
        <time>2022-03-28T04:18:42.465Z</time>
      </trkpt>
      <trkpt lat="46.17111" lon="2.75006">
        <ele>548.80214103152</ele>
        <time>2022-03-28T04:18:47.674Z</time>
      </trkpt>
      <trkpt lat="46.17128" lon="2.75">
        <ele>546.45128224232</ele>
        <time>2022-03-28T04:18:52.887Z</time>
      </trkpt>
      <trkpt lat="46.1714" lon="2.74992">
        <ele>544.15132063391</ele>
        <time>2022-03-28T04:18:58.103Z</time>
      </trkpt>
      <trkpt lat="46.17151" lon="2.74981">
        <ele>541.83664792487</ele>
        <time>2022-03-28T04:19:03.321Z</time>
      </trkpt>
      <trkpt lat="46.17187" lon="2.74933">
        <ele>539.45318273348</ele>
        <time>2022-03-28T04:19:08.549Z</time>
      </trkpt>
      <trkpt lat="46.17205" lon="2.74913">
        <ele>537.27004436544</ele>
        <time>2022-03-28T04:19:13.782Z</time>
      </trkpt>
      <trkpt lat="46.1722" lon="2.74902">
        <ele>535.31023879288</ele>
        <time>2022-03-28T04:19:19.018Z</time>
      </trkpt>
      <trkpt lat="46.17222" lon="2.749">
        <ele>532.1873011421</ele>
        <time>2022-03-28T04:19:24.255Z</time>
      </trkpt>
      <trkpt lat="46.17387" lon="2.74804">
        <ele>530.50190951249</ele>
        <time>2022-03-28T04:19:29.527Z</time>
      </trkpt>
      <trkpt lat="46.17406" lon="2.74798">
        <ele>529.73886649135</ele>
        <time>2022-03-28T04:19:34.803Z</time>
      </trkpt>
      <trkpt lat="46.17433" lon="2.74799">
        <ele>529.42580600355</ele>
        <time>2022-03-28T04:19:40.084Z</time>
      </trkpt>
      <trkpt lat="46.17482" lon="2.74802">
        <ele>529.54820166474</ele>
        <time>2022-03-28T04:19:45.375Z</time>
      </trkpt>
      <trkpt lat="46.17493" lon="2.74806">
        <ele>529.92450049827</ele>
        <time>2022-03-28T04:19:50.669Z</time>
      </trkpt>
      <trkpt lat="46.17508" lon="2.74817">
        <ele>530.65940106139</ele>
        <time>2022-03-28T04:19:55.966Z</time>
      </trkpt>
      <trkpt lat="46.17519" lon="2.74832">
        <ele>531.63254430416</ele>
        <time>2022-03-28T04:20:01.266Z</time>
      </trkpt>
      <trkpt lat="46.17542" lon="2.74877">
        <ele>532.86725660017</ele>
        <time>2022-03-28T04:20:06.574Z</time>
      </trkpt>
      <trkpt lat="46.17552" lon="2.74889">
        <ele>534.1214955371</ele>
        <time>2022-03-28T04:20:11.884Z</time>
      </trkpt>
      <trkpt lat="46.17562" lon="2.74895">
        <ele>535.46760026247</ele>
        <time>2022-03-28T04:20:17.196Z</time>
      </trkpt>
      <trkpt lat="46.17578" lon="2.74894">
        <ele>536.88582361521</ele>
        <time>2022-03-28T04:20:22.512Z</time>
      </trkpt>
      <trkpt lat="46.17746" lon="2.74861">
        <ele>538.56760045017</ele>
        <time>2022-03-28T04:20:27.862Z</time>
      </trkpt>
      <trkpt lat="46.17762" lon="2.74854">
        <ele>539.99360322436</ele>
        <time>2022-03-28T04:20:33.215Z</time>
      </trkpt>
      <trkpt lat="46.17772" lon="2.74846">
        <ele>541.33803137804</ele>
        <time>2022-03-28T04:20:38.570Z</time>
      </trkpt>
      <trkpt lat="46.17783" lon="2.74835">
        <ele>542.61794311893</ele>
        <time>2022-03-28T04:20:43.928Z</time>
      </trkpt>
      <trkpt lat="46.178" lon="2.74804">
        <ele>543.82666986632</ele>
        <time>2022-03-28T04:20:49.291Z</time>
      </trkpt>
      <trkpt lat="46.17832" lon="2.7474">
        <ele>545.20437721916</ele>
        <time>2022-03-28T04:20:54.665Z</time>
      </trkpt>
      <trkpt lat="46.17847" lon="2.74718">
        <ele>546.34601000157</ele>
        <time>2022-03-28T04:21:00.044Z</time>
      </trkpt>
      <trkpt lat="46.17895" lon="2.74659">
        <ele>547.42144948959</ele>
        <time>2022-03-28T04:21:05.435Z</time>
      </trkpt>
      <trkpt lat="46.17907" lon="2.74649">
        <ele>548.4044747298</ele>
        <time>2022-03-28T04:21:10.829Z</time>
      </trkpt>
      <trkpt lat="46.17912" lon="2.74647">
        <ele>549.38769343459</ele>
        <time>2022-03-28T04:21:16.224Z</time>
      </trkpt>
      <trkpt lat="46.17918" lon="2.74645">
        <ele>550.35583711785</ele>
        <time>2022-03-28T04:21:21.620Z</time>
      </trkpt>
      <trkpt lat="46.17928" lon="2.74643">
        <ele>551.31484926432</ele>
        <time>2022-03-28T04:21:27.018Z</time>
      </trkpt>
      <trkpt lat="46.17937" lon="2.74646">
        <ele>552.26369861529</ele>
        <time>2022-03-28T04:21:32.418Z</time>
      </trkpt>
      <trkpt lat="46.17955" lon="2.74655">
        <ele>553.25731512762</ele>
        <time>2022-03-28T04:21:37.822Z</time>
      </trkpt>
      <trkpt lat="46.1797" lon="2.74655">
        <ele>554.2048132776</ele>
        <time>2022-03-28T04:21:43.229Z</time>
      </trkpt>
      <trkpt lat="46.17981" lon="2.7465">
        <ele>555.0955345105</ele>
        <time>2022-03-28T04:21:48.638Z</time>
      </trkpt>
      <trkpt lat="46.18023" lon="2.74611">
        <ele>556.07965707645</ele>
        <time>2022-03-28T04:21:54.057Z</time>
      </trkpt>
      <trkpt lat="46.18036" lon="2.746">
        <ele>556.8576385494</ele>
        <time>2022-03-28T04:21:59.479Z</time>
      </trkpt>
      <trkpt lat="46.18047" lon="2.74594">
        <ele>557.53094348101</ele>
        <time>2022-03-28T04:22:04.904Z</time>
      </trkpt>
      <trkpt lat="46.18065" lon="2.74592">
        <ele>558.06466619524</ele>
        <time>2022-03-28T04:22:10.332Z</time>
      </trkpt>
      <trkpt lat="46.1809" lon="2.74594">
        <ele>558.41954387711</ele>
        <time>2022-03-28T04:22:15.765Z</time>
      </trkpt>
      <trkpt lat="46.18106" lon="2.74604">
        <ele>558.61039730892</ele>
        <time>2022-03-28T04:22:21.202Z</time>
      </trkpt>
      <trkpt lat="46.18119" lon="2.74617">
        <ele>558.64858132682</ele>
        <time>2022-03-28T04:22:26.642Z</time>
      </trkpt>
      <trkpt lat="46.18122" lon="2.7462">
        <ele>558.5380191749</ele>
        <time>2022-03-28T04:22:32.083Z</time>
      </trkpt>
      <trkpt lat="46.18126" lon="2.74624">
        <ele>558.25794817185</ele>
        <time>2022-03-28T04:22:37.525Z</time>
      </trkpt>
      <trkpt lat="46.18131" lon="2.7463">
        <ele>557.80930750109</ele>
        <time>2022-03-28T04:22:42.968Z</time>
      </trkpt>
      <trkpt lat="46.18157" lon="2.74662">
        <ele>557.18759993749</ele>
        <time>2022-03-28T04:22:48.418Z</time>
      </trkpt>
      <trkpt lat="46.18196" lon="2.74718">
        <ele>556.44427933268</ele>
        <time>2022-03-28T04:22:53.879Z</time>
      </trkpt>
      <trkpt lat="46.1821" lon="2.74744">
        <ele>555.46352630768</ele>
        <time>2022-03-28T04:22:59.344Z</time>
      </trkpt>
      <trkpt lat="46.18223" lon="2.74778">
        <ele>554.29445472105</ele>
        <time>2022-03-28T04:23:04.815Z</time>
      </trkpt>
      <trkpt lat="46.18231" lon="2.74816">
        <ele>553.06155972197</ele>
        <time>2022-03-28T04:23:10.291Z</time>
      </trkpt>
      <trkpt lat="46.18234" lon="2.74848">
        <ele>551.72529995863</ele>
        <time>2022-03-28T04:23:15.772Z</time>
      </trkpt>
      <trkpt lat="46.18234" lon="2.74898">
        <ele>550.22163010108</ele>
        <time>2022-03-28T04:23:21.260Z</time>
      </trkpt>
      <trkpt lat="46.18232" lon="2.74924">
        <ele>548.70656930793</ele>
        <time>2022-03-28T04:23:26.751Z</time>
      </trkpt>
      <trkpt lat="46.18222" lon="2.74972">
        <ele>547.18486479508</ele>
        <time>2022-03-28T04:23:32.249Z</time>
      </trkpt>
      <trkpt lat="46.18222" lon="2.74987">
        <ele>545.54437335201</ele>
        <time>2022-03-28T04:23:37.749Z</time>
      </trkpt>
      <trkpt lat="46.18224" lon="2.75004">
        <ele>543.83623119764</ele>
        <time>2022-03-28T04:23:43.252Z</time>
      </trkpt>
      <trkpt lat="46.1823" lon="2.75022">
        <ele>542.04232698055</ele>
        <time>2022-03-28T04:23:48.758Z</time>
      </trkpt>
      <trkpt lat="46.18257" lon="2.75054">
        <ele>540.09097136079</ele>
        <time>2022-03-28T04:23:54.271Z</time>
      </trkpt>
      <trkpt lat="46.18339" lon="2.75127">
        <ele>538.21095558607</ele>
        <time>2022-03-28T04:23:59.803Z</time>
      </trkpt>
      <trkpt lat="46.18363" lon="2.75145">
        <ele>536.53109559709</ele>
        <time>2022-03-28T04:24:05.340Z</time>
      </trkpt>
      <trkpt lat="46.18405" lon="2.75169">
        <ele>534.8839684233</ele>
        <time>2022-03-28T04:24:10.886Z</time>
      </trkpt>
      <trkpt lat="46.18425" lon="2.7519">
        <ele>533.34246347671</ele>
        <time>2022-03-28T04:24:16.437Z</time>
      </trkpt>
      <trkpt lat="46.18433" lon="2.75204">
        <ele>531.954585869</ele>
        <time>2022-03-28T04:24:21.991Z</time>
      </trkpt>
      <trkpt lat="46.18439" lon="2.75218">
        <ele>530.70666056471</ele>
        <time>2022-03-28T04:24:27.547Z</time>
      </trkpt>
      <trkpt lat="46.18442" lon="2.75235">
        <ele>529.65097907613</ele>
        <time>2022-03-28T04:24:33.106Z</time>
      </trkpt>
      <trkpt lat="46.18444" lon="2.7528">
        <ele>528.84070469225</ele>
        <time>2022-03-28T04:24:38.671Z</time>
      </trkpt>
      <trkpt lat="46.18447" lon="2.75298">
        <ele>528.1546621037</ele>
        <time>2022-03-28T04:24:44.238Z</time>
      </trkpt>
      <trkpt lat="46.18455" lon="2.75314">
        <ele>527.6874685705</ele>
        <time>2022-03-28T04:24:49.808Z</time>
      </trkpt>
      <trkpt lat="46.18466" lon="2.75327">
        <ele>527.49084781892</ele>
        <time>2022-03-28T04:24:55.381Z</time>
      </trkpt>
      <trkpt lat="46.18494" lon="2.75344">
        <ele>527.56861904025</ele>
        <time>2022-03-28T04:25:00.960Z</time>
      </trkpt>
      <trkpt lat="46.18529" lon="2.75362">
        <ele>527.95580857516</ele>
        <time>2022-03-28T04:25:06.546Z</time>
      </trkpt>
      <trkpt lat="46.1856" lon="2.75367">
        <ele>528.84985463136</ele>
        <time>2022-03-28T04:25:12.139Z</time>
      </trkpt>
      <trkpt lat="46.18594" lon="2.75372">
        <ele>530.3263150205</ele>
        <time>2022-03-28T04:25:17.739Z</time>
      </trkpt>
      <trkpt lat="46.1862" lon="2.75375">
        <ele>532.25769254538</ele>
        <time>2022-03-28T04:25:23.344Z</time>
      </trkpt>
      <trkpt lat="46.18647" lon="2.75383">
        <ele>534.65530919441</ele>
        <time>2022-03-28T04:25:28.954Z</time>
      </trkpt>
      <trkpt lat="46.18668" lon="2.75394">
        <ele>537.44019066326</ele>
        <time>2022-03-28T04:25:34.569Z</time>
      </trkpt>
      <trkpt lat="46.18706" lon="2.75427">
        <ele>540.72797228356</ele>
        <time>2022-03-28T04:25:40.193Z</time>
      </trkpt>
      <trkpt lat="46.18749" lon="2.75473">
        <ele>544.29915628994</ele>
        <time>2022-03-28T04:25:45.827Z</time>
      </trkpt>
      <trkpt lat="46.18774" lon="2.75493">
        <ele>548.02930859748</ele>
        <time>2022-03-28T04:25:51.467Z</time>
      </trkpt>
      <trkpt lat="46.1878" lon="2.75495">
        <ele>551.84453645293</ele>
        <time>2022-03-28T04:25:57.108Z</time>
      </trkpt>
      <trkpt lat="46.18788" lon="2.75498">
        <ele>555.75181628272</ele>
        <time>2022-03-28T04:26:02.751Z</time>
      </trkpt>
      <trkpt lat="46.18816" lon="2.75502">
        <ele>559.72014488867</ele>
        <time>2022-03-28T04:26:08.400Z</time>
      </trkpt>
      <trkpt lat="46.19128" lon="2.75523">
        <ele>564.5461216437</ele>
        <time>2022-03-28T04:26:14.111Z</time>
      </trkpt>
      <trkpt lat="46.19241" lon="2.7553">
        <ele>568.44472737122</ele>
        <time>2022-03-28T04:26:19.845Z</time>
      </trkpt>
      <trkpt lat="46.1934" lon="2.75499">
        <ele>571.61733018301</ele>
        <time>2022-03-28T04:26:25.599Z</time>
      </trkpt>
      <trkpt lat="46.19403" lon="2.75489">
        <ele>574.15024712503</ele>
        <time>2022-03-28T04:26:31.366Z</time>
      </trkpt>
      <trkpt lat="46.19499" lon="2.75464">
        <ele>576.1368345715</ele>
        <time>2022-03-28T04:26:37.152Z</time>
      </trkpt>
      <trkpt lat="46.19551" lon="2.75461">
        <ele>577.81152270561</ele>
        <time>2022-03-28T04:26:42.949Z</time>
      </trkpt>
      <trkpt lat="46.19565" lon="2.75458">
        <ele>579.12128072629</ele>
        <time>2022-03-28T04:26:48.748Z</time>
      </trkpt>
      <trkpt lat="46.19579" lon="2.7545">
        <ele>580.01929736945</ele>
        <time>2022-03-28T04:26:54.550Z</time>
      </trkpt>
      <trkpt lat="46.196" lon="2.75434">
        <ele>580.52824892615</ele>
        <time>2022-03-28T04:27:00.357Z</time>
      </trkpt>
      <trkpt lat="46.19611" lon="2.75429">
        <ele>580.63082876485</ele>
        <time>2022-03-28T04:27:06.167Z</time>
      </trkpt>
      <trkpt lat="46.19618" lon="2.75431">
        <ele>580.43546003775</ele>
        <time>2022-03-28T04:27:11.978Z</time>
      </trkpt>
      <trkpt lat="46.19637" lon="2.75442">
        <ele>579.93544751306</ele>
        <time>2022-03-28T04:27:17.793Z</time>
      </trkpt>
      <trkpt lat="46.19643" lon="2.75446">
        <ele>579.20869139277</ele>
        <time>2022-03-28T04:27:23.609Z</time>
      </trkpt>
      <trkpt lat="46.19648" lon="2.7545">
        <ele>578.26847388266</ele>
        <time>2022-03-28T04:27:29.427Z</time>
      </trkpt>
      <trkpt lat="46.19659" lon="2.75457">
        <ele>577.13311336562</ele>
        <time>2022-03-28T04:27:35.247Z</time>
      </trkpt>
      <trkpt lat="46.19707" lon="2.75488">
        <ele>575.74329677356</ele>
        <time>2022-03-28T04:27:41.077Z</time>
      </trkpt>
      <trkpt lat="46.1981" lon="2.75561">
        <ele>574.08371273286</ele>
        <time>2022-03-28T04:27:46.930Z</time>
      </trkpt>
      <trkpt lat="46.19894" lon="2.75588">
        <ele>572.46453940117</ele>
        <time>2022-03-28T04:27:52.801Z</time>
      </trkpt>
      <trkpt lat="46.20124" lon="2.75637">
        <ele>570.95743984641</ele>
        <time>2022-03-28T04:27:58.718Z</time>
      </trkpt>
      <trkpt lat="46.20142" lon="2.75639">
        <ele>569.29036827095</ele>
        <time>2022-03-28T04:28:04.639Z</time>
      </trkpt>
      <trkpt lat="46.20208" lon="2.75646">
        <ele>567.49429391025</ele>
        <time>2022-03-28T04:28:10.573Z</time>
      </trkpt>
      <trkpt lat="46.20252" lon="2.75649">
        <ele>565.57346903286</ele>
        <time>2022-03-28T04:28:16.516Z</time>
      </trkpt>
      <trkpt lat="46.20277" lon="2.75659">
        <ele>563.52158945136</ele>
        <time>2022-03-28T04:28:22.464Z</time>
      </trkpt>
      <trkpt lat="46.20317" lon="2.75683">
        <ele>561.3308678126</ele>
        <time>2022-03-28T04:28:28.421Z</time>
      </trkpt>
      <trkpt lat="46.20349" lon="2.75707">
        <ele>558.89528534731</ele>
        <time>2022-03-28T04:28:34.385Z</time>
      </trkpt>
      <trkpt lat="46.20381" lon="2.75738">
        <ele>556.3373101668</ele>
        <time>2022-03-28T04:28:40.357Z</time>
      </trkpt>
      <trkpt lat="46.20496" lon="2.75879">
        <ele>553.19979654026</ele>
        <time>2022-03-28T04:28:46.359Z</time>
      </trkpt>
      <trkpt lat="46.20683" lon="2.76018">
        <ele>549.89818132088</ele>
        <time>2022-03-28T04:28:52.403Z</time>
      </trkpt>
      <trkpt lat="46.20808" lon="2.76111">
        <ele>546.95713459616</ele>
        <time>2022-03-28T04:28:58.475Z</time>
      </trkpt>
      <trkpt lat="46.20874" lon="2.76161">
        <ele>543.94278670272</ele>
        <time>2022-03-28T04:29:04.562Z</time>
      </trkpt>
      <trkpt lat="46.20905" lon="2.76184">
        <ele>541.06862099609</ele>
        <time>2022-03-28T04:29:10.656Z</time>
      </trkpt>
      <trkpt lat="46.20963" lon="2.76227">
        <ele>538.38563559358</ele>
        <time>2022-03-28T04:29:16.763Z</time>
      </trkpt>
      <trkpt lat="46.20985" lon="2.76238">
        <ele>535.71945054396</ele>
        <time>2022-03-28T04:29:22.875Z</time>
      </trkpt>
      <trkpt lat="46.21007" lon="2.76244">
        <ele>533.14726986518</ele>
        <time>2022-03-28T04:29:28.991Z</time>
      </trkpt>
      <trkpt lat="46.21248" lon="2.76286">
        <ele>530.31226925867</ele>
        <time>2022-03-28T04:29:35.156Z</time>
      </trkpt>
      <trkpt lat="46.21377" lon="2.76323">
        <ele>528.02406086865</ele>
        <time>2022-03-28T04:29:41.347Z</time>
      </trkpt>
      <trkpt lat="46.21514" lon="2.7639">
        <ele>525.70427403861</ele>
        <time>2022-03-28T04:29:47.567Z</time>
      </trkpt>
      <trkpt lat="46.21538" lon="2.76389">
        <ele>524.0955902829</ele>
        <time>2022-03-28T04:29:53.792Z</time>
      </trkpt>
      <trkpt lat="46.21723" lon="2.76353">
        <ele>522.88270785333</ele>
        <time>2022-03-28T04:30:00.054Z</time>
      </trkpt>
      <trkpt lat="46.21725" lon="2.76352">
        <ele>521.94705434435</ele>
        <time>2022-03-28T04:30:06.317Z</time>
      </trkpt>
      <trkpt lat="46.21726" lon="2.76352">
        <ele>521.33476877033</ele>
        <time>2022-03-28T04:30:12.580Z</time>
      </trkpt>
      <trkpt lat="46.21908" lon="2.76316">
        <ele>521.14763121738</ele>
        <time>2022-03-28T04:30:18.880Z</time>
      </trkpt>
      <trkpt lat="46.21937" lon="2.76316">
        <ele>521.13579866701</ele>
        <time>2022-03-28T04:30:25.185Z</time>
      </trkpt>
      <trkpt lat="46.21965" lon="2.76332">
        <ele>521.35151660417</ele>
        <time>2022-03-28T04:30:31.496Z</time>
      </trkpt>
      <trkpt lat="46.21983" lon="2.76346">
        <ele>521.72092798172</ele>
        <time>2022-03-28T04:30:37.811Z</time>
      </trkpt>
      <trkpt lat="46.21993" lon="2.7635">
        <ele>522.21560661847</ele>
        <time>2022-03-28T04:30:44.129Z</time>
      </trkpt>
      <trkpt lat="46.22013" lon="2.76354">
        <ele>522.77698934566</ele>
        <time>2022-03-28T04:30:50.451Z</time>
      </trkpt>
      <trkpt lat="46.22052" lon="2.76355">
        <ele>523.46263133914</ele>
        <time>2022-03-28T04:30:56.780Z</time>
      </trkpt>
      <trkpt lat="46.22098" lon="2.76343">
        <ele>524.18072958416</ele>
        <time>2022-03-28T04:31:03.119Z</time>
      </trkpt>
      <trkpt lat="46.22123" lon="2.76341">
        <ele>524.84944943542</ele>
        <time>2022-03-28T04:31:09.463Z</time>
      </trkpt>
      <trkpt lat="46.22122" lon="2.76326">
        <ele>525.57021123633</ele>
        <time>2022-03-28T04:31:15.809Z</time>
      </trkpt>
      <trkpt lat="46.22122" lon="2.76322">
        <ele>526.23943082805</ele>
        <time>2022-03-28T04:31:22.155Z</time>
      </trkpt>
      <trkpt lat="46.22121" lon="2.76308">
        <ele>526.86926967174</ele>
        <time>2022-03-28T04:31:28.503Z</time>
      </trkpt>
      <trkpt lat="46.22123" lon="2.76304">
        <ele>527.41447342816</ele>
        <time>2022-03-28T04:31:34.852Z</time>
      </trkpt>
      <trkpt lat="46.22145" lon="2.76266">
        <ele>527.90530916872</ele>
        <time>2022-03-28T04:31:41.208Z</time>
      </trkpt>
      <trkpt lat="46.22148" lon="2.76263">
        <ele>528.29750379318</ele>
        <time>2022-03-28T04:31:47.565Z</time>
      </trkpt>
      <trkpt lat="46.22151" lon="2.76242">
        <ele>528.60183611772</ele>
        <time>2022-03-28T04:31:53.925Z</time>
      </trkpt>
      <trkpt lat="46.22172" lon="2.76206">
        <ele>528.75328193693</ele>
        <time>2022-03-28T04:32:00.291Z</time>
      </trkpt>
      <trkpt lat="46.22183" lon="2.76192">
        <ele>528.83064059524</ele>
        <time>2022-03-28T04:32:06.660Z</time>
      </trkpt>
      <trkpt lat="46.22211" lon="2.76168">
        <ele>528.80655873472</ele>
        <time>2022-03-28T04:32:13.036Z</time>
      </trkpt>
      <trkpt lat="46.2228" lon="2.76119">
        <ele>528.65070072291</ele>
        <time>2022-03-28T04:32:19.427Z</time>
      </trkpt>
      <trkpt lat="46.223" lon="2.76097">
        <ele>528.39091612208</ele>
        <time>2022-03-28T04:32:25.823Z</time>
      </trkpt>
      <trkpt lat="46.22328" lon="2.76062">
        <ele>528.13243779381</ele>
        <time>2022-03-28T04:32:32.226Z</time>
      </trkpt>
      <trkpt lat="46.22366" lon="2.76036">
        <ele>527.80689099637</ele>
        <time>2022-03-28T04:32:38.638Z</time>
      </trkpt>
      <trkpt lat="46.22403" lon="2.76007">
        <ele>527.19657597671</ele>
        <time>2022-03-28T04:32:45.058Z</time>
      </trkpt>
      <trkpt lat="46.22422" lon="2.7598">
        <ele>526.43066881792</ele>
        <time>2022-03-28T04:32:51.484Z</time>
      </trkpt>
      <trkpt lat="46.22484" lon="2.75881">
        <ele>525.7242206081</ele>
        <time>2022-03-28T04:32:57.928Z</time>
      </trkpt>
      <trkpt lat="46.22497" lon="2.75872">
        <ele>524.76389680849</ele>
        <time>2022-03-28T04:33:04.375Z</time>
      </trkpt>
      <trkpt lat="46.22568" lon="2.75816">
        <ele>523.57483114045</ele>
        <time>2022-03-28T04:33:10.838Z</time>
      </trkpt>
      <trkpt lat="46.22586" lon="2.75797">
        <ele>522.2266099794</ele>
        <time>2022-03-28T04:33:17.306Z</time>
      </trkpt>
      <trkpt lat="46.22587" lon="2.75781">
        <ele>520.75828138384</ele>
        <time>2022-03-28T04:33:23.776Z</time>
      </trkpt>
      <trkpt lat="46.22614" lon="2.75732">
        <ele>519.08608485671</ele>
        <time>2022-03-28T04:33:30.255Z</time>
      </trkpt>
      <trkpt lat="46.22627" lon="2.75702">
        <ele>517.22440599022</ele>
        <time>2022-03-28T04:33:36.739Z</time>
      </trkpt>
      <trkpt lat="46.22636" lon="2.75665">
        <ele>515.20011896272</ele>
        <time>2022-03-28T04:33:43.228Z</time>
      </trkpt>
      <trkpt lat="46.22667" lon="2.75575">
        <ele>512.88328455141</ele>
        <time>2022-03-28T04:33:49.731Z</time>
      </trkpt>
      <trkpt lat="46.2269" lon="2.75533">
        <ele>510.77441399116</ele>
        <time>2022-03-28T04:33:56.241Z</time>
      </trkpt>
      <trkpt lat="46.22717" lon="2.75509">
        <ele>508.65355142778</ele>
        <time>2022-03-28T04:34:02.758Z</time>
      </trkpt>
      <trkpt lat="46.2285" lon="2.75454">
        <ele>506.33733310658</ele>
        <time>2022-03-28T04:34:09.302Z</time>
      </trkpt>
      <trkpt lat="46.22864" lon="2.75445">
        <ele>504.1532486327</ele>
        <time>2022-03-28T04:34:15.849Z</time>
      </trkpt>
      <trkpt lat="46.22867" lon="2.75433">
        <ele>502.05966636204</ele>
        <time>2022-03-28T04:34:22.398Z</time>
      </trkpt>
      <trkpt lat="46.22869" lon="2.75428">
        <ele>500.04130047242</ele>
        <time>2022-03-28T04:34:28.948Z</time>
      </trkpt>
      <trkpt lat="46.22868" lon="2.75405">
        <ele>498.05586998303</ele>
        <time>2022-03-28T04:34:35.501Z</time>
      </trkpt>
      <trkpt lat="46.22858" lon="2.75377">
        <ele>496.1346679269</ele>
        <time>2022-03-28T04:34:42.059Z</time>
      </trkpt>
      <trkpt lat="46.22847" lon="2.75355">
        <ele>494.17745932171</ele>
        <time>2022-03-28T04:34:48.620Z</time>
      </trkpt>
      <trkpt lat="46.22838" lon="2.75355">
        <ele>492.23307508161</ele>
        <time>2022-03-28T04:34:55.183Z</time>
      </trkpt>
      <trkpt lat="46.22816" lon="2.7535">
        <ele>490.25890135733</ele>
        <time>2022-03-28T04:35:01.751Z</time>
      </trkpt>
      <trkpt lat="46.228" lon="2.75342">
        <ele>488.22007047793</ele>
        <time>2022-03-28T04:35:08.322Z</time>
      </trkpt>
      <trkpt lat="46.22779" lon="2.75335">
        <ele>486.13476447762</ele>
        <time>2022-03-28T04:35:14.897Z</time>
      </trkpt>
      <trkpt lat="46.22756" lon="2.75325">
        <ele>484.05584613096</ele>
        <time>2022-03-28T04:35:21.477Z</time>
      </trkpt>
      <trkpt lat="46.22741" lon="2.7531">
        <ele>482.01497208807</ele>
        <time>2022-03-28T04:35:28.061Z</time>
      </trkpt>
      <trkpt lat="46.22733" lon="2.75287">
        <ele>479.9975403602</ele>
        <time>2022-03-28T04:35:34.648Z</time>
      </trkpt>
      <trkpt lat="46.22733" lon="2.75263">
        <ele>478.12605653688</ele>
        <time>2022-03-28T04:35:41.239Z</time>
      </trkpt>
      <trkpt lat="46.22739" lon="2.7523">
        <ele>476.35356036919</ele>
        <time>2022-03-28T04:35:47.834Z</time>
      </trkpt>
      <trkpt lat="46.22739" lon="2.75212">
        <ele>474.94395385438</ele>
        <time>2022-03-28T04:35:54.432Z</time>
      </trkpt>
      <trkpt lat="46.22737" lon="2.75207">
        <ele>473.85107317009</ele>
        <time>2022-03-28T04:36:01.031Z</time>
      </trkpt>
      <trkpt lat="46.22716" lon="2.75155">
        <ele>472.96578538336</ele>
        <time>2022-03-28T04:36:07.638Z</time>
      </trkpt>
      <trkpt lat="46.22702" lon="2.75113">
        <ele>472.49561282681</ele>
        <time>2022-03-28T04:36:14.252Z</time>
      </trkpt>
      <trkpt lat="46.22704" lon="2.75079">
        <ele>472.41582610957</ele>
        <time>2022-03-28T04:36:20.870Z</time>
      </trkpt>
      <trkpt lat="46.22713" lon="2.75035">
        <ele>472.76996765431</ele>
        <time>2022-03-28T04:36:27.495Z</time>
      </trkpt>
      <trkpt lat="46.22725" lon="2.74987">
        <ele>473.36442811843</ele>
        <time>2022-03-28T04:36:34.127Z</time>
      </trkpt>
      <trkpt lat="46.22727" lon="2.74954">
        <ele>474.32175473837</ele>
        <time>2022-03-28T04:36:40.763Z</time>
      </trkpt>
      <trkpt lat="46.22728" lon="2.74905">
        <ele>475.71897765733</ele>
        <time>2022-03-28T04:36:47.406Z</time>
      </trkpt>
      <trkpt lat="46.22734" lon="2.74868">
        <ele>477.32245783951</ele>
        <time>2022-03-28T04:36:54.054Z</time>
      </trkpt>
      <trkpt lat="46.22743" lon="2.74834">
        <ele>479.1680122874</ele>
        <time>2022-03-28T04:37:00.707Z</time>
      </trkpt>
      <trkpt lat="46.22752" lon="2.74752">
        <ele>481.35500308994</ele>
        <time>2022-03-28T04:37:07.372Z</time>
      </trkpt>
      <trkpt lat="46.22748" lon="2.74723">
        <ele>483.44139957799</ele>
        <time>2022-03-28T04:37:14.041Z</time>
      </trkpt>
      <trkpt lat="46.22708" lon="2.74644">
        <ele>485.64499527504</ele>
        <time>2022-03-28T04:37:20.724Z</time>
      </trkpt>
      <trkpt lat="46.22676" lon="2.74576">
        <ele>487.94297781869</ele>
        <time>2022-03-28T04:37:27.418Z</time>
      </trkpt>
      <trkpt lat="46.22651" lon="2.74538">
        <ele>490.16487676118</ele>
        <time>2022-03-28T04:37:34.119Z</time>
      </trkpt>
      <trkpt lat="46.22629" lon="2.74511">
        <ele>492.35830190551</ele>
        <time>2022-03-28T04:37:40.826Z</time>
      </trkpt>
      <trkpt lat="46.22607" lon="2.74458">
        <ele>494.5251842852</ele>
        <time>2022-03-28T04:37:47.542Z</time>
      </trkpt>
      <trkpt lat="46.22591" lon="2.74419">
        <ele>496.56591799782</ele>
        <time>2022-03-28T04:37:54.264Z</time>
      </trkpt>
      <trkpt lat="46.22596" lon="2.7442">
        <ele>498.40620079623</ele>
        <time>2022-03-28T04:38:00.987Z</time>
      </trkpt>
      <trkpt lat="46.22605" lon="2.74422">
        <ele>500.13413324407</ele>
        <time>2022-03-28T04:38:07.712Z</time>
      </trkpt>
      <trkpt lat="46.22626" lon="2.74416">
        <ele>501.77757505639</ele>
        <time>2022-03-28T04:38:14.441Z</time>
      </trkpt>
      <trkpt lat="46.22664" lon="2.744">
        <ele>503.34450367806</ele>
        <time>2022-03-28T04:38:21.178Z</time>
      </trkpt>
      <trkpt lat="46.22709" lon="2.74394">
        <ele>504.76667148872</ele>
        <time>2022-03-28T04:38:27.924Z</time>
      </trkpt>
      <trkpt lat="46.22742" lon="2.74399">
        <ele>506.05563453215</ele>
        <time>2022-03-28T04:38:34.677Z</time>
      </trkpt>
      <trkpt lat="46.2278" lon="2.74399">
        <ele>507.3484362144</ele>
        <time>2022-03-28T04:38:41.437Z</time>
      </trkpt>
      <trkpt lat="46.2292" lon="2.7443">
        <ele>508.51708551017</ele>
        <time>2022-03-28T04:38:48.226Z</time>
      </trkpt>
      <trkpt lat="46.22969" lon="2.74409">
        <ele>509.52004787769</ele>
        <time>2022-03-28T04:38:55.025Z</time>
      </trkpt>
      <trkpt lat="46.23131" lon="2.74427">
        <ele>510.40316485062</ele>
        <time>2022-03-28T04:39:01.856Z</time>
      </trkpt>
      <trkpt lat="46.23192" lon="2.74432">
        <ele>511.07214552352</ele>
        <time>2022-03-28T04:39:08.700Z</time>
      </trkpt>
      <trkpt lat="46.23248" lon="2.74443">
        <ele>511.64169288806</ele>
        <time>2022-03-28T04:39:15.555Z</time>
      </trkpt>
      <trkpt lat="46.23264" lon="2.74444">
        <ele>511.95672805142</ele>
        <time>2022-03-28T04:39:22.413Z</time>
      </trkpt>
      <trkpt lat="46.2329" lon="2.74443">
        <ele>512.04687103018</ele>
        <time>2022-03-28T04:39:29.276Z</time>
      </trkpt>
      <trkpt lat="46.23286" lon="2.74452">
        <ele>512.02056832028</ele>
        <time>2022-03-28T04:39:36.141Z</time>
      </trkpt>
      <trkpt lat="46.2329" lon="2.74443">
        <ele>512.04687103018</ele>
        <time>2022-03-28T04:39:43.007Z</time>
      </trkpt>
      <trkpt lat="46.23301" lon="2.7442">
        <ele>511.30401442798</ele>
        <time>2022-03-28T04:39:49.877Z</time>
      </trkpt>
      <trkpt lat="46.23314" lon="2.74391">
        <ele>510.70879841073</ele>
        <time>2022-03-28T04:39:56.752Z</time>
      </trkpt>
      <trkpt lat="46.23317" lon="2.74333">
        <ele>509.96561905394</ele>
        <time>2022-03-28T04:40:03.635Z</time>
      </trkpt>
      <trkpt lat="46.23325" lon="2.74257">
        <ele>508.90869427614</ele>
        <time>2022-03-28T04:40:10.529Z</time>
      </trkpt>
      <trkpt lat="46.23337" lon="2.74115">
        <ele>507.64287559062</ele>
        <time>2022-03-28T04:40:17.443Z</time>
      </trkpt>
      <trkpt lat="46.23334" lon="2.74114">
        <ele>506.40659130206</ele>
        <time>2022-03-28T04:40:24.357Z</time>
      </trkpt>
      <trkpt lat="46.23337" lon="2.74115">
        <ele>507.64287559062</ele>
        <time>2022-03-28T04:40:31.272Z</time>
      </trkpt>
      <trkpt lat="46.23341" lon="2.74082">
        <ele>503.45194585441</ele>
        <time>2022-03-28T04:40:38.191Z</time>
      </trkpt>
      <trkpt lat="46.23346" lon="2.74052">
        <ele>501.7829038357</ele>
        <time>2022-03-28T04:40:45.115Z</time>
      </trkpt>
      <trkpt lat="46.23353" lon="2.74036">
        <ele>500.06821804608</ele>
        <time>2022-03-28T04:40:52.041Z</time>
      </trkpt>
      <trkpt lat="46.23467" lon="2.73901">
        <ele>498.0958395867</ele>
        <time>2022-03-28T04:40:58.997Z</time>
      </trkpt>
      <trkpt lat="46.23495" lon="2.73834">
        <ele>496.11882891078</ele>
        <time>2022-03-28T04:41:05.964Z</time>
      </trkpt>
      <trkpt lat="46.23501" lon="2.73823">
        <ele>494.12708120722</ele>
        <time>2022-03-28T04:41:12.933Z</time>
      </trkpt>
      <trkpt lat="46.23501" lon="2.73822">
        <ele>492.0956731155</ele>
        <time>2022-03-28T04:41:19.902Z</time>
      </trkpt>
      <trkpt lat="46.23502" lon="2.738">
        <ele>489.92137736603</ele>
        <time>2022-03-28T04:41:26.874Z</time>
      </trkpt>
      <trkpt lat="46.23493" lon="2.73771">
        <ele>487.6621257336</ele>
        <time>2022-03-28T04:41:33.850Z</time>
      </trkpt>
      <trkpt lat="46.23473" lon="2.73744">
        <ele>485.3964413398</ele>
        <time>2022-03-28T04:41:40.832Z</time>
      </trkpt>
      <trkpt lat="46.23453" lon="2.73707">
        <ele>483.11754742513</ele>
        <time>2022-03-28T04:41:47.820Z</time>
      </trkpt>
      <trkpt lat="46.23444" lon="2.73695">
        <ele>480.9454486342</ele>
        <time>2022-03-28T04:41:54.811Z</time>
      </trkpt>
      <trkpt lat="46.2344" lon="2.73692">
        <ele>478.85744189823</ele>
        <time>2022-03-28T04:42:01.803Z</time>
      </trkpt>
      <trkpt lat="46.23444" lon="2.73695">
        <ele>480.9454486342</ele>
        <time>2022-03-28T04:42:08.796Z</time>
      </trkpt>
      <trkpt lat="46.23446" lon="2.73684">
        <ele>474.93504164011</ele>
        <time>2022-03-28T04:42:15.790Z</time>
      </trkpt>
      <trkpt lat="46.23458" lon="2.73636">
        <ele>472.983952162</ele>
        <time>2022-03-28T04:42:22.791Z</time>
      </trkpt>
      <trkpt lat="46.23468" lon="2.736">
        <ele>471.2596647776</ele>
        <time>2022-03-28T04:42:29.798Z</time>
      </trkpt>
      <trkpt lat="46.23469" lon="2.73597">
        <ele>468.43897096851</ele>
        <time>2022-03-28T04:42:36.805Z</time>
      </trkpt>
      <trkpt lat="46.23469" lon="2.73597">
        <ele>467.36930721725</ele>
        <time>2022-03-28T04:42:43.812Z</time>
      </trkpt>
      <trkpt lat="46.23482" lon="2.73553">
        <ele>466.38354349175</ele>
        <time>2022-03-28T04:42:50.826Z</time>
      </trkpt>
      <trkpt lat="46.23499" lon="2.73521">
        <ele>465.76320123342</ele>
        <time>2022-03-28T04:42:57.845Z</time>
      </trkpt>
      <trkpt lat="46.23515" lon="2.73498">
        <ele>465.53198264495</ele>
        <time>2022-03-28T04:43:04.869Z</time>
      </trkpt>
      <trkpt lat="46.23535" lon="2.73476">
        <ele>465.8034576319</ele>
        <time>2022-03-28T04:43:11.898Z</time>
      </trkpt>
      <trkpt lat="46.23543" lon="2.73453">
        <ele>466.55824702411</ele>
        <time>2022-03-28T04:43:18.930Z</time>
      </trkpt>
      <trkpt lat="46.23549" lon="2.734">
        <ele>467.80397042755</ele>
        <time>2022-03-28T04:43:25.970Z</time>
      </trkpt>
      <trkpt lat="46.23545" lon="2.73339">
        <ele>469.60981476187</ele>
        <time>2022-03-28T04:43:33.018Z</time>
      </trkpt>
      <trkpt lat="46.23547" lon="2.73269">
        <ele>471.93605688863</ele>
        <time>2022-03-28T04:43:40.076Z</time>
      </trkpt>
      <trkpt lat="46.2356" lon="2.73141">
        <ele>474.75633527243</ele>
        <time>2022-03-28T04:43:47.152Z</time>
      </trkpt>
      <trkpt lat="46.23574" lon="2.73008">
        <ele>477.69396227812</ele>
        <time>2022-03-28T04:43:54.247Z</time>
      </trkpt>
      <trkpt lat="46.23583" lon="2.72943">
        <ele>480.69481602437</ele>
        <time>2022-03-28T04:44:01.351Z</time>
      </trkpt>
      <trkpt lat="46.23596" lon="2.72882">
        <ele>483.76260838309</ele>
        <time>2022-03-28T04:44:08.464Z</time>
      </trkpt>
      <trkpt lat="46.23609" lon="2.72838">
        <ele>486.68683506229</ele>
        <time>2022-03-28T04:44:15.584Z</time>
      </trkpt>
      <trkpt lat="46.23622" lon="2.72769">
        <ele>489.75103038279</ele>
        <time>2022-03-28T04:44:22.713Z</time>
      </trkpt>
      <trkpt lat="46.23646" lon="2.72692">
        <ele>492.6983320972</ele>
        <time>2022-03-28T04:44:29.854Z</time>
      </trkpt>
      <trkpt lat="46.23646" lon="2.72682">
        <ele>495.28133825229</ele>
        <time>2022-03-28T04:44:36.996Z</time>
      </trkpt>
      <trkpt lat="46.23666" lon="2.72625">
        <ele>497.71312349218</ele>
        <time>2022-03-28T04:44:44.147Z</time>
      </trkpt>
      <trkpt lat="46.23673" lon="2.7258">
        <ele>499.85245537837</ele>
        <time>2022-03-28T04:44:51.305Z</time>
      </trkpt>
      <trkpt lat="46.23679" lon="2.72559">
        <ele>501.72343307771</ele>
        <time>2022-03-28T04:44:58.466Z</time>
      </trkpt>
      <trkpt lat="46.23685" lon="2.72542">
        <ele>503.33882820124</ele>
        <time>2022-03-28T04:45:05.630Z</time>
      </trkpt>
      <trkpt lat="46.23711" lon="2.7251">
        <ele>504.70648736936</ele>
        <time>2022-03-28T04:45:12.800Z</time>
      </trkpt>
      <trkpt lat="46.23716" lon="2.72498">
        <ele>505.77496501556</ele>
        <time>2022-03-28T04:45:19.972Z</time>
      </trkpt>
      <trkpt lat="46.23727" lon="2.72503">
        <ele>506.58046089344</ele>
        <time>2022-03-28T04:45:27.147Z</time>
      </trkpt>
      <trkpt lat="46.2373" lon="2.72491">
        <ele>507.18886771044</ele>
        <time>2022-03-28T04:45:34.323Z</time>
      </trkpt>
      <trkpt lat="46.23735" lon="2.72428">
        <ele>507.4893603385</ele>
        <time>2022-03-28T04:45:41.508Z</time>
      </trkpt>
      <trkpt lat="46.23735" lon="2.72397">
        <ele>507.70847137448</ele>
        <time>2022-03-28T04:45:48.697Z</time>
      </trkpt>
      <trkpt lat="46.23729" lon="2.7235">
        <ele>507.82443897322</ele>
        <time>2022-03-28T04:45:55.893Z</time>
      </trkpt>
      <trkpt lat="46.23729" lon="2.72331">
        <ele>507.89552687635</ele>
        <time>2022-03-28T04:46:03.092Z</time>
      </trkpt>
      <trkpt lat="46.23738" lon="2.72267">
        <ele>507.94060997369</ele>
        <time>2022-03-28T04:46:10.300Z</time>
      </trkpt>
      <trkpt lat="46.23742" lon="2.7217">
        <ele>507.708497069</ele>
        <time>2022-03-28T04:46:17.521Z</time>
      </trkpt>
      <trkpt lat="46.23738" lon="2.72074">
        <ele>507.44308053294</ele>
        <time>2022-03-28T04:46:24.756Z</time>
      </trkpt>
      <trkpt lat="46.23738" lon="2.72074">
        <ele>506.9596303025</ele>
        <time>2022-03-28T04:46:31.991Z</time>
      </trkpt>
      <trkpt lat="46.23738" lon="2.72052">
        <ele>506.35320195677</ele>
        <time>2022-03-28T04:46:39.229Z</time>
      </trkpt>
      <trkpt lat="46.23744" lon="2.72018">
        <ele>505.55373150363</ele>
        <time>2022-03-28T04:46:46.472Z</time>
      </trkpt>
      <trkpt lat="46.23747" lon="2.71984">
        <ele>504.50712410919</ele>
        <time>2022-03-28T04:46:53.719Z</time>
      </trkpt>
      <trkpt lat="46.23742" lon="2.71907">
        <ele>503.04129724245</ele>
        <time>2022-03-28T04:47:00.977Z</time>
      </trkpt>
      <trkpt lat="46.23744" lon="2.71885">
        <ele>501.38246073479</ele>
        <time>2022-03-28T04:47:08.238Z</time>
      </trkpt>
      <trkpt lat="46.23758" lon="2.71797">
        <ele>499.38354877747</ele>
        <time>2022-03-28T04:47:15.512Z</time>
      </trkpt>
      <trkpt lat="46.2378" lon="2.7169">
        <ele>497.08177606589</ele>
        <time>2022-03-28T04:47:22.801Z</time>
      </trkpt>
      <trkpt lat="46.23779" lon="2.71666">
        <ele>494.73186868071</ele>
        <time>2022-03-28T04:47:30.093Z</time>
      </trkpt>
      <trkpt lat="46.2377" lon="2.71624">
        <ele>492.17291544135</ele>
        <time>2022-03-28T04:47:37.391Z</time>
      </trkpt>
      <trkpt lat="46.23766" lon="2.71619">
        <ele>489.6143382788</ele>
        <time>2022-03-28T04:47:44.691Z</time>
      </trkpt>
      <trkpt lat="46.23757" lon="2.71616">
        <ele>486.93387464</ele>
        <time>2022-03-28T04:47:51.992Z</time>
      </trkpt>
      <trkpt lat="46.23698" lon="2.71618">
        <ele>483.94258192024</ele>
        <time>2022-03-28T04:47:59.305Z</time>
      </trkpt>
      <trkpt lat="46.23693" lon="2.71611">
        <ele>481.05447204953</ele>
        <time>2022-03-28T04:48:06.620Z</time>
      </trkpt>
      <trkpt lat="46.23692" lon="2.71595">
        <ele>478.08171876433</ele>
        <time>2022-03-28T04:48:13.937Z</time>
      </trkpt>
      <trkpt lat="46.23693" lon="2.71583">
        <ele>475.11197065486</ele>
        <time>2022-03-28T04:48:21.255Z</time>
      </trkpt>
      <trkpt lat="46.23698" lon="2.7157">
        <ele>472.14743741322</ele>
        <time>2022-03-28T04:48:28.576Z</time>
      </trkpt>
      <trkpt lat="46.23756" lon="2.71477">
        <ele>468.96662824518</ele>
        <time>2022-03-28T04:48:35.914Z</time>
      </trkpt>
      <trkpt lat="46.23759" lon="2.71376">
        <ele>465.744377069</ele>
        <time>2022-03-28T04:48:43.266Z</time>
      </trkpt>
      <trkpt lat="46.2376" lon="2.71361">
        <ele>462.86551172926</ele>
        <time>2022-03-28T04:48:50.620Z</time>
      </trkpt>
      <trkpt lat="46.23766" lon="2.71315">
        <ele>459.88514259367</ele>
        <time>2022-03-28T04:48:57.981Z</time>
      </trkpt>
      <trkpt lat="46.23766" lon="2.71312">
        <ele>454.7948918576</ele>
        <time>2022-03-28T04:49:05.342Z</time>
      </trkpt>
      <trkpt lat="46.23779" lon="2.71312">
        <ele>452.47875701606</ele>
        <time>2022-03-28T04:49:12.706Z</time>
      </trkpt>
      <trkpt lat="46.23783" lon="2.71272">
        <ele>450.09747272631</ele>
        <time>2022-03-28T04:49:20.075Z</time>
      </trkpt>
      <trkpt lat="46.23773" lon="2.71233">
        <ele>448.03437246524</ele>
        <time>2022-03-28T04:49:27.450Z</time>
      </trkpt>
      <trkpt lat="46.23781" lon="2.71226">
        <ele>446.36816140456</ele>
        <time>2022-03-28T04:49:34.827Z</time>
      </trkpt>
      <trkpt lat="46.23781" lon="2.71209">
        <ele>444.89980753154</ele>
        <time>2022-03-28T04:49:42.206Z</time>
      </trkpt>
      <trkpt lat="46.23781" lon="2.71198">
        <ele>443.73429213362</ele>
        <time>2022-03-28T04:49:49.587Z</time>
      </trkpt>
      <trkpt lat="46.23782" lon="2.71157">
        <ele>442.80699583056</ele>
        <time>2022-03-28T04:49:56.973Z</time>
      </trkpt>
      <trkpt lat="46.23786" lon="2.71138">
        <ele>442.17160812402</ele>
        <time>2022-03-28T04:50:04.362Z</time>
      </trkpt>
      <trkpt lat="46.238" lon="2.71106">
        <ele>441.79859192869</ele>
        <time>2022-03-28T04:50:11.756Z</time>
      </trkpt>
      <trkpt lat="46.23803" lon="2.71098">
        <ele>441.54172126321</ele>
        <time>2022-03-28T04:50:19.152Z</time>
      </trkpt>
      <trkpt lat="46.23804" lon="2.71085">
        <ele>441.4426277336</ele>
        <time>2022-03-28T04:50:26.549Z</time>
      </trkpt>
      <trkpt lat="46.23799" lon="2.71064">
        <ele>441.46514046859</ele>
        <time>2022-03-28T04:50:33.950Z</time>
      </trkpt>
      <trkpt lat="46.23797" lon="2.71053">
        <ele>441.60132428517</ele>
        <time>2022-03-28T04:50:41.352Z</time>
      </trkpt>
      <trkpt lat="46.23796" lon="2.7104">
        <ele>441.82448328467</ele>
        <time>2022-03-28T04:50:48.756Z</time>
      </trkpt>
      <trkpt lat="46.23796" lon="2.71011">
        <ele>442.06448376216</ele>
        <time>2022-03-28T04:50:56.164Z</time>
      </trkpt>
      <trkpt lat="46.23794" lon="2.70986">
        <ele>442.38784948524</ele>
        <time>2022-03-28T04:51:03.575Z</time>
      </trkpt>
      <trkpt lat="46.23787" lon="2.70957">
        <ele>442.81484099291</ele>
        <time>2022-03-28T04:51:10.991Z</time>
      </trkpt>
      <trkpt lat="46.23766" lon="2.70899">
        <ele>443.30688282172</ele>
        <time>2022-03-28T04:51:18.416Z</time>
      </trkpt>
      <trkpt lat="46.2375" lon="2.70859">
        <ele>443.69427282341</ele>
        <time>2022-03-28T04:51:25.847Z</time>
      </trkpt>
      <trkpt lat="46.23746" lon="2.70838">
        <ele>444.24528780118</ele>
        <time>2022-03-28T04:51:33.281Z</time>
      </trkpt>
      <trkpt lat="46.23744" lon="2.70765">
        <ele>444.90106828746</ele>
        <time>2022-03-28T04:51:40.725Z</time>
      </trkpt>
      <trkpt lat="46.23737" lon="2.70671">
        <ele>445.57102928108</ele>
        <time>2022-03-28T04:51:48.183Z</time>
      </trkpt>
      <trkpt lat="46.23735" lon="2.70646">
        <ele>446.43723039952</ele>
        <time>2022-03-28T04:51:55.644Z</time>
      </trkpt>
      <trkpt lat="46.23737" lon="2.70577">
        <ele>447.58130247226</ele>
        <time>2022-03-28T04:52:03.115Z</time>
      </trkpt>
      <trkpt lat="46.23742" lon="2.70539">
        <ele>448.83783437263</ele>
        <time>2022-03-28T04:52:10.591Z</time>
      </trkpt>
      <trkpt lat="46.23744" lon="2.70504">
        <ele>450.21147535444</ele>
        <time>2022-03-28T04:52:18.072Z</time>
      </trkpt>
      <trkpt lat="46.23744" lon="2.705">
        <ele>453.2199257442</ele>
        <time>2022-03-28T04:52:25.553Z</time>
      </trkpt>
      <trkpt lat="46.23745" lon="2.70489">
        <ele>454.86909369288</ele>
        <time>2022-03-28T04:52:33.036Z</time>
      </trkpt>
      <trkpt lat="46.23748" lon="2.7049">
        <ele>456.57407245136</ele>
        <time>2022-03-28T04:52:40.520Z</time>
      </trkpt>
      <trkpt lat="46.23791" lon="2.70252">
        <ele>458.60341052777</ele>
        <time>2022-03-28T04:52:48.038Z</time>
      </trkpt>
      <trkpt lat="46.23794" lon="2.70234">
        <ele>461.61640628425</ele>
        <time>2022-03-28T04:52:55.558Z</time>
      </trkpt>
      <trkpt lat="46.23458" lon="2.70257">
        <ele>463.56267235642</ele>
        <time>2022-03-28T04:53:03.146Z</time>
      </trkpt>
      <trkpt lat="46.23458" lon="2.70257">
        <ele>464.42971791092</ele>
        <time>2022-03-28T04:53:10.734Z</time>
      </trkpt>
      <trkpt lat="46.23444" lon="2.70258">
        <ele>465.08458790158</ele>
        <time>2022-03-28T04:53:18.324Z</time>
      </trkpt>
      <trkpt lat="46.23457" lon="2.70198">
        <ele>464.66218864574</ele>
        <time>2022-03-28T04:53:25.923Z</time>
      </trkpt>
      <trkpt lat="46.23462" lon="2.70169">
        <ele>463.98876604292</ele>
        <time>2022-03-28T04:53:33.526Z</time>
      </trkpt>
      <trkpt lat="46.23471" lon="2.70102">
        <ele>462.8166426419</ele>
        <time>2022-03-28T04:53:41.139Z</time>
      </trkpt>
      <trkpt lat="46.23472" lon="2.7007">
        <ele>461.59865193144</ele>
        <time>2022-03-28T04:53:48.756Z</time>
      </trkpt>
      <trkpt lat="46.23468" lon="2.70034">
        <ele>460.24926416499</ele>
        <time>2022-03-28T04:53:56.378Z</time>
      </trkpt>
      <trkpt lat="46.23462" lon="2.70008">
        <ele>458.8983129363</ele>
        <time>2022-03-28T04:54:04.004Z</time>
      </trkpt>
      <trkpt lat="46.23449" lon="2.69972">
        <ele>457.56463356916</ele>
        <time>2022-03-28T04:54:11.636Z</time>
      </trkpt>
      <trkpt lat="46.2343" lon="2.69924">
        <ele>456.30608741296</ele>
        <time>2022-03-28T04:54:19.275Z</time>
      </trkpt>
      <trkpt lat="46.23421" lon="2.69896">
        <ele>455.13213331309</ele>
        <time>2022-03-28T04:54:26.919Z</time>
      </trkpt>
      <trkpt lat="46.23419" lon="2.69882">
        <ele>454.12197698469</ele>
        <time>2022-03-28T04:54:34.565Z</time>
      </trkpt>
      <trkpt lat="46.23421" lon="2.69856">
        <ele>453.32799905479</ele>
        <time>2022-03-28T04:54:42.214Z</time>
      </trkpt>
      <trkpt lat="46.23427" lon="2.69835">
        <ele>452.76363672463</ele>
        <time>2022-03-28T04:54:49.866Z</time>
      </trkpt>
      <trkpt lat="46.23434" lon="2.6981">
        <ele>452.4556213086</ele>
        <time>2022-03-28T04:54:57.522Z</time>
      </trkpt>
      <trkpt lat="46.23436" lon="2.69786">
        <ele>452.54743154717</ele>
        <time>2022-03-28T04:55:05.182Z</time>
      </trkpt>
      <trkpt lat="46.23437" lon="2.6977">
        <ele>453.90914222958</ele>
        <time>2022-03-28T04:55:12.844Z</time>
      </trkpt>
      <trkpt lat="46.23437" lon="2.69766">
        <ele>455.18389897269</ele>
        <time>2022-03-28T04:55:20.506Z</time>
      </trkpt>
      <trkpt lat="46.23437" lon="2.69766">
        <ele>456.84918127204</ele>
        <time>2022-03-28T04:55:28.168Z</time>
      </trkpt>
      <trkpt lat="46.23443" lon="2.69662">
        <ele>459.12051302783</ele>
        <time>2022-03-28T04:55:35.845Z</time>
      </trkpt>
      <trkpt lat="46.23466" lon="2.69605">
        <ele>461.47802312034</ele>
        <time>2022-03-28T04:55:43.531Z</time>
      </trkpt>
      <trkpt lat="46.23478" lon="2.69448">
        <ele>464.40948740289</ele>
        <time>2022-03-28T04:55:51.239Z</time>
      </trkpt>
      <trkpt lat="46.23461" lon="2.69284">
        <ele>467.17585770834</ele>
        <time>2022-03-28T04:55:58.970Z</time>
      </trkpt>
      <trkpt lat="46.23463" lon="2.69234">
        <ele>470.0627991721</ele>
        <time>2022-03-28T04:56:06.708Z</time>
      </trkpt>
      <trkpt lat="46.23509" lon="2.69048">
        <ele>473.02170793217</ele>
        <time>2022-03-28T04:56:14.473Z</time>
      </trkpt>
      <trkpt lat="46.23528" lon="2.69014">
        <ele>475.64596834933</ele>
        <time>2022-03-28T04:56:22.244Z</time>
      </trkpt>
      <trkpt lat="46.23505" lon="2.68984">
        <ele>478.12133417196</ele>
        <time>2022-03-28T04:56:30.022Z</time>
      </trkpt>
      <trkpt lat="46.2346" lon="2.68903">
        <ele>480.51707715091</ele>
        <time>2022-03-28T04:56:37.814Z</time>
      </trkpt>
      <trkpt lat="46.23435" lon="2.68848">
        <ele>482.67703676908</ele>
        <time>2022-03-28T04:56:45.615Z</time>
      </trkpt>
      <trkpt lat="46.23428" lon="2.68831">
        <ele>486.46288881285</ele>
        <time>2022-03-28T04:56:53.419Z</time>
      </trkpt>
      <trkpt lat="46.23384" lon="2.68791">
        <ele>488.18855443362</ele>
        <time>2022-03-28T04:57:01.233Z</time>
      </trkpt>
      <trkpt lat="46.2334" lon="2.68759">
        <ele>489.65950187129</ele>
        <time>2022-03-28T04:57:09.057Z</time>
      </trkpt>
      <trkpt lat="46.23311" lon="2.68734">
        <ele>490.94133465436</ele>
        <time>2022-03-28T04:57:16.888Z</time>
      </trkpt>
      <trkpt lat="46.23293" lon="2.68705">
        <ele>492.13112729609</ele>
        <time>2022-03-28T04:57:24.724Z</time>
      </trkpt>
      <trkpt lat="46.2328" lon="2.68677">
        <ele>493.19402259335</ele>
        <time>2022-03-28T04:57:32.565Z</time>
      </trkpt>
      <trkpt lat="46.23255" lon="2.68553">
        <ele>494.22308648632</ele>
        <time>2022-03-28T04:57:40.424Z</time>
      </trkpt>
      <trkpt lat="46.23248" lon="2.68552">
        <ele>494.8257611393</ele>
        <time>2022-03-28T04:57:48.284Z</time>
      </trkpt>
      <trkpt lat="46.23202" lon="2.68515">
        <ele>495.3891122071</ele>
        <time>2022-03-28T04:57:56.155Z</time>
      </trkpt>
      <trkpt lat="46.23168" lon="2.68498">
        <ele>495.83805698955</ele>
        <time>2022-03-28T04:58:04.033Z</time>
      </trkpt>
      <trkpt lat="46.23149" lon="2.68481">
        <ele>496.29316448314</ele>
        <time>2022-03-28T04:58:11.915Z</time>
      </trkpt>
      <trkpt lat="46.23138" lon="2.68484">
        <ele>496.76868211405</ele>
        <time>2022-03-28T04:58:19.800Z</time>
      </trkpt>
      <trkpt lat="46.23128" lon="2.6849">
        <ele>497.34556954169</ele>
        <time>2022-03-28T04:58:27.687Z</time>
      </trkpt>
      <trkpt lat="46.23021" lon="2.68313">
        <ele>498.24421891478</ele>
        <time>2022-03-28T04:58:35.606Z</time>
      </trkpt>
      <trkpt lat="46.23007" lon="2.683">
        <ele>499.01989126376</ele>
        <time>2022-03-28T04:58:43.529Z</time>
      </trkpt>
      <trkpt lat="46.22991" lon="2.68291">
        <ele>499.96185008091</ele>
        <time>2022-03-28T04:58:51.455Z</time>
      </trkpt>
      <trkpt lat="46.22955" lon="2.68276">
        <ele>501.14421680313</ele>
        <time>2022-03-28T04:58:59.389Z</time>
      </trkpt>
      <trkpt lat="46.22895" lon="2.68278">
        <ele>502.5580875228</ele>
        <time>2022-03-28T04:59:07.335Z</time>
      </trkpt>
      <trkpt lat="46.2286" lon="2.68263">
        <ele>504.03853805</ele>
        <time>2022-03-28T04:59:15.288Z</time>
      </trkpt>
      <trkpt lat="46.22829" lon="2.68231">
        <ele>505.64135095381</ele>
        <time>2022-03-28T04:59:23.249Z</time>
      </trkpt>
      <trkpt lat="46.22789" lon="2.68196">
        <ele>506.97485993781</ele>
        <time>2022-03-28T04:59:31.219Z</time>
      </trkpt>
      <trkpt lat="46.22678" lon="2.68099">
        <ele>508.35994118817</ele>
        <time>2022-03-28T04:59:39.215Z</time>
      </trkpt>
      <trkpt lat="46.22641" lon="2.68088">
        <ele>509.42667793154</ele>
        <time>2022-03-28T04:59:47.219Z</time>
      </trkpt>
      <trkpt lat="46.22641" lon="2.68088">
        <ele>510.44057675066</ele>
        <time>2022-03-28T04:59:55.223Z</time>
      </trkpt>
      <trkpt lat="46.22639" lon="2.68087">
        <ele>511.41764276977</ele>
        <time>2022-03-28T05:00:03.227Z</time>
      </trkpt>
      <trkpt lat="46.2261" lon="2.68092">
        <ele>512.29446482924</ele>
        <time>2022-03-28T05:00:11.237Z</time>
      </trkpt>
      <trkpt lat="46.2255" lon="2.68115">
        <ele>513.46520652896</ele>
        <time>2022-03-28T05:00:19.259Z</time>
      </trkpt>
      <trkpt lat="46.22527" lon="2.6812">
        <ele>514.20604996371</ele>
        <time>2022-03-28T05:00:27.286Z</time>
      </trkpt>
      <trkpt lat="46.22527" lon="2.6812">
        <ele>514.83310067454</ele>
        <time>2022-03-28T05:00:35.313Z</time>
      </trkpt>
      <trkpt lat="46.22517" lon="2.68122">
        <ele>516.14018230668</ele>
        <time>2022-03-28T05:00:43.342Z</time>
      </trkpt>
      <trkpt lat="46.22513" lon="2.68121">
        <ele>516.87939289523</ele>
        <time>2022-03-28T05:00:51.372Z</time>
      </trkpt>
      <trkpt lat="46.22513" lon="2.68121">
        <ele>517.74470263994</ele>
        <time>2022-03-28T05:00:59.402Z</time>
      </trkpt>
      <trkpt lat="46.22517" lon="2.68122">
        <ele>516.14018230668</ele>
        <time>2022-03-28T05:01:07.433Z</time>
      </trkpt>
      <trkpt lat="46.22465" lon="2.68006">
        <ele>520.33077712843</ele>
        <time>2022-03-28T05:01:15.483Z</time>
      </trkpt>
      <trkpt lat="46.22462" lon="2.67996">
        <ele>521.32420324017</ele>
        <time>2022-03-28T05:01:23.534Z</time>
      </trkpt>
      <trkpt lat="46.22448" lon="2.67953">
        <ele>522.42394183565</ele>
        <time>2022-03-28T05:01:31.592Z</time>
      </trkpt>
      <trkpt lat="46.22443" lon="2.67943">
        <ele>523.33047999061</ele>
        <time>2022-03-28T05:01:39.652Z</time>
      </trkpt>
      <trkpt lat="46.2248" lon="2.67897">
        <ele>524.33991914966</ele>
        <time>2022-03-28T05:01:47.722Z</time>
      </trkpt>
      <trkpt lat="46.22503" lon="2.67863">
        <ele>525.15200092443</ele>
        <time>2022-03-28T05:01:55.798Z</time>
      </trkpt>
      <trkpt lat="46.22494" lon="2.67838">
        <ele>525.81985877626</ele>
        <time>2022-03-28T05:02:03.878Z</time>
      </trkpt>
      <trkpt lat="46.22479" lon="2.67822">
        <ele>526.36276868295</ele>
        <time>2022-03-28T05:02:11.962Z</time>
      </trkpt>
    </trkseg>
  </trk>
</gpx>